Observation data for Palo Duro Canyon State Park Floor on 05/27/2019      Previous  Date  Next       Current Mesonet Observations  Soil Data  Daily Summary Page  Observations in Plain Language
KPD2 270500Z 15010KT 21/19 A2986 RMK A01 T02120192  RH  088%=      5-min Rain = 0
KPD2 270501Z 14013G23KT 21/19 A2987 RMK A01 T02120190  RH  087%=      5-min Rain = 0
KPD2 270502Z 14014G27KT 21/19 A2987 RMK A01 T02130187  RH  085%=      5-min Rain = 0
KPD2 270503Z 14010KT 21/19 A2987 RMK A01 T02140186  RH  084%=      5-min Rain = 0
KPD2 270504Z 15011KT 21/19 A2986 RMK A01 T02140186  RH  084%=      5-min Rain = 0
KPD2 270505Z 13008KT 21/19 A2987 RMK A01 T02140185  RH  083%=      5-min Rain = 0
KPD2 270506Z 14008KT 21/19 A2987 RMK A01 T02140185  RH  083%=      5-min Rain = 0
KPD2 270507Z 14006KT 21/18 A2987 RMK A01 T02140184  RH  083%=      5-min Rain = 0
KPD2 270508Z 12007G13KT 21/18 A2987 RMK A01 T02140182  RH  082%=      5-min Rain = 0
KPD2 270509Z 11009KT 21/18 A2987 RMK A01 T02140182  RH  082%=      5-min Rain = 0
KPD2 270510Z 12006KT 22/18 A2987 RMK A01 T02150183  RH  082%=      5-min Rain = 0
KPD2 270511Z 13013KT 22/18 A2987 RMK A01 T02150182  RH  082%=      5-min Rain = 0
KPD2 270512Z 13011G18KT 22/18 A2987 RMK A01 T02160182  RH  081%=      5-min Rain = 0
KPD2 270513Z 12008KT 22/18 A2987 RMK A01 T02160183  RH  081%=      5-min Rain = 0
KPD2 270514Z 11009G14KT 22/18 A2986 RMK A01 T02160183  RH  081%=      5-min Rain = 0
KPD2 270515Z 12009KT 22/18 A2986 RMK A01 T02160184  RH  082%=      5-min Rain = 0
KPD2 270516Z 14008KT 22/18 A2987 RMK A01 T02160183  RH  081%=      5-min Rain = 0
KPD2 270517Z 14008KT 22/18 A2987 RMK A01 T02170183  RH  081%=      5-min Rain = 0
KPD2 270518Z 13008KT 22/18 A2987 RMK A01 T02180183  RH  081%=      5-min Rain = 0
KPD2 270519Z 14007KT 22/18 A2987 RMK A01 T02180184  RH  081%=      5-min Rain = 0
KPD2 270520Z 14005KT 22/18 A2987 RMK A01 T02180183  RH  081%=      5-min Rain = 0
KPD2 270521Z 13011G19KT 22/18 A2986 RMK A01 T02190184  RH  081%=      5-min Rain = 0
KPD2 270522Z 13008G13KT 22/18 A2986 RMK A01 T02190183  RH  080%=      5-min Rain = 0
KPD2 270523Z 14006KT 22/18 A2986 RMK A01 T02210183  RH  079%=      5-min Rain = 0
KPD2 270524Z 13008KT 22/18 A2987 RMK A01 T02210184  RH  080%=      5-min Rain = 0
KPD2 270525Z 13010KT 22/19 A2987 RMK A01 T02210185  RH  080%=      5-min Rain = 0
KPD2 270526Z 14008KT 22/19 A2987 RMK A01 T02220186  RH  080%=      5-min Rain = 0
KPD2 270527Z 12009G15KT 22/19 A2986 RMK A01 T02210186  RH  081%=      5-min Rain = 0
KPD2 270528Z 13011KT 22/19 A2986 RMK A01 T02210186  RH  081%=      5-min Rain = 0
KPD2 270529Z 14010KT 22/19 A2986 RMK A01 T02210185  RH  080%=      5-min Rain = 0
KPD2 270530Z 13009G14KT 22/19 A2986 RMK A01 T02210186  RH  080%=      5-min Rain = 0
KPD2 270531Z 13012KT 22/19 A2986 RMK A01 T02220188  RH  081%=      5-min Rain = 0
KPD2 270532Z 14008KT 22/19 A2986 RMK A01 T02210187  RH  081%=      5-min Rain = 0
KPD2 270533Z 13009KT 22/19 A2986 RMK A01 T02210187  RH  081%=      5-min Rain = 0
KPD2 270534Z 14010KT 22/19 A2986 RMK A01 T02210187  RH  081%=      5-min Rain = 0
KPD2 270535Z 13008KT 22/19 A2986 RMK A01 T02210187  RH  081%=      5-min Rain = 0
KPD2 270536Z 13012KT 22/19 A2987 RMK A01 T02220188  RH  081%=      5-min Rain = 0
KPD2 270537Z 13011KT 22/19 A2987 RMK A01 T02210187  RH  081%=      5-min Rain = 0
KPD2 270538Z 14007KT 22/19 A2987 RMK A01 T02220187  RH  081%=      5-min Rain = 0
KPD2 270539Z 13007KT 22/19 A2987 RMK A01 T02220188  RH  081%=      5-min Rain = 0
KPD2 270540Z 13007KT 22/19 A2987 RMK A01 T02220189  RH  081%=      5-min Rain = 0
KPD2 270541Z 13007KT 22/19 A2987 RMK A01 T02220189  RH  082%=      5-min Rain = 0
KPD2 270542Z 14009KT 22/19 A2987 RMK A01 T02200189  RH  082%=      5-min Rain = 0
KPD2 270543Z 13008KT 22/19 A2987 RMK A01 T02200188  RH  082%=      5-min Rain = 0
KPD2 270544Z 14007KT 22/19 A2987 RMK A01 T02200189  RH  082%=      5-min Rain = 0
KPD2 270545Z 14009KT 22/19 A2987 RMK A01 T02190188  RH  082%=      5-min Rain = 0
KPD2 270546Z 14009KT 22/19 A2987 RMK A01 T02190188  RH  082%=      5-min Rain = 0
KPD2 270547Z 13008KT 22/19 A2987 RMK A01 T02200188  RH  082%=      5-min Rain = 0
KPD2 270548Z 13007KT 22/19 A2987 RMK A01 T02200188  RH  082%=      5-min Rain = 0
KPD2 270549Z 13008KT 22/19 A2987 RMK A01 T02200188  RH  082%=      5-min Rain = 0
KPD2 270550Z 13010KT 22/19 A2987 RMK A01 T02190189  RH  083%=      5-min Rain = 0
KPD2 270551Z 14009KT 22/19 A2987 RMK A01 T02190188  RH  083%=      5-min Rain = 0
KPD2 270552Z 13008KT 22/19 A2987 RMK A01 T02190188  RH  083%=      5-min Rain = 0
KPD2 270553Z 14009KT 22/19 A2987 RMK A01 T02190188  RH  083%=      5-min Rain = 0
KPD2 270554Z 14007KT 22/19 A2987 RMK A01 T02190188  RH  083%=      5-min Rain = 0
KPD2 270555Z 14008KT 22/19 A2987 RMK A01 T02190188  RH  083%=      5-min Rain = 0
KPD2 270556Z 15007KT 22/19 A2987 RMK A01 T02190188  RH  083%=      5-min Rain = 0
KPD2 270557Z 13008KT 22/19 A2987 RMK A01 T02190188  RH  082%=      5-min Rain = 0
KPD2 270558Z 12008KT 22/19 A2988 RMK A01 T02190189  RH  083%=      5-min Rain = 0
KPD2 270559Z 14006KT 22/19 A2988 RMK A01 T02180188  RH  083%=      5-min Rain = 0
KPD2 270600Z 15008KT 22/19 A2988 RMK A01 T02180188  RH  083%=      5-min Rain = 0
KPD2 270601Z 12006KT 22/19 A2988 RMK A01 T02180188  RH  083%=      5-min Rain = 0
KPD2 270602Z 14007KT 22/19 A2988 RMK A01 T02180189  RH  083%=      5-min Rain = 0
KPD2 270603Z 13007KT 22/19 A2988 RMK A01 T02170188  RH  084%=      5-min Rain = 0
KPD2 270604Z 12007KT 22/19 A2988 RMK A01 T02170189  RH  084%=      5-min Rain = 0
KPD2 270605Z 13008KT 22/19 A2988 RMK A01 T02160189  RH  084%=      5-min Rain = 0
KPD2 270606Z 13007KT 22/19 A2988 RMK A01 T02150188  RH  084%=      5-min Rain = 0
KPD2 270607Z 12006KT 22/19 A2988 RMK A01 T02150188  RH  085%=      5-min Rain = 0
KPD2 270608Z 12008G14KT 22/19 A2988 RMK A01 T02150188  RH  085%=      5-min Rain = 0
KPD2 270609Z 13009KT 22/19 A2988 RMK A01 T02150188  RH  085%=      5-min Rain = 0
KPD2 270610Z 12009G15KT 22/19 A2988 RMK A01 T02150188  RH  085%=      5-min Rain = 0
KPD2 270611Z 13007KT 22/19 A2988 RMK A01 T02150187  RH  084%=      5-min Rain = 0
KPD2 270612Z 13006KT 22/19 A2988 RMK A01 T02150187  RH  084%=      5-min Rain = 0
KPD2 270613Z 12008KT 22/19 A2988 RMK A01 T02150188  RH  084%=      5-min Rain = 0
KPD2 270614Z 12008KT 22/19 A2988 RMK A01 T02150188  RH  084%=      5-min Rain = 0
KPD2 270615Z 13007KT 22/19 A2988 RMK A01 T02150188  RH  085%=      5-min Rain = 0
KPD2 270616Z 12007KT 22/19 A2988 RMK A01 T02150188  RH  085%=      5-min Rain = 0
KPD2 270617Z 13007KT 21/19 A2988 RMK A01 T02140188  RH  085%=      5-min Rain = 0
KPD2 270618Z 13006KT 21/19 A2988 RMK A01 T02140188  RH  085%=      5-min Rain = 0
KPD2 270619Z 13006KT 21/19 A2988 RMK A01 T02140188  RH  085%=      5-min Rain = 0
KPD2 270620Z 13006KT 21/19 A2987 RMK A01 T02130188  RH  085%=      5-min Rain = 0
KPD2 270621Z 13010KT 21/19 A2987 RMK A01 T02130187  RH  085%=      5-min Rain = 0
KPD2 270622Z 13009KT 21/19 A2987 RMK A01 T02130187  RH  085%=      5-min Rain = 0
KPD2 270623Z 13009KT 21/19 A2987 RMK A01 T02130187  RH  085%=      5-min Rain = 0
KPD2 270624Z 12009KT 21/19 A2987 RMK A01 T02140187  RH  085%=      5-min Rain = 0
KPD2 270625Z 13010KT 21/19 A2987 RMK A01 T02140187  RH  085%=      5-min Rain = 0
KPD2 270626Z 13009KT 21/19 A2987 RMK A01 T02140187  RH  085%=      5-min Rain = 0
KPD2 270627Z 13007KT 21/19 A2987 RMK A01 T02130187  RH  085%=      5-min Rain = 0
KPD2 270628Z 13007G12KT 21/19 A2987 RMK A01 T02130187  RH  085%=      5-min Rain = 0
KPD2 270629Z 12008KT 21/19 A2987 RMK A01 T02130187  RH  085%=      5-min Rain = 0
KPD2 270630Z 12010KT 21/19 A2987 RMK A01 T02130187  RH  085%=      5-min Rain = 0
KPD2 270631Z 12007KT 21/19 A2987 RMK A01 T02120187  RH  085%=      5-min Rain = 0
KPD2 270632Z 13008KT 21/19 A2986 RMK A01 T02120187  RH  085%=      5-min Rain = 0
KPD2 270633Z 13008KT 21/19 A2986 RMK A01 T02120186  RH  085%=      5-min Rain = 0
KPD2 270634Z 13008KT 21/19 A2986 RMK A01 T02120186  RH  085%=      5-min Rain = 0
KPD2 270635Z 13008KT 21/19 A2986 RMK A01 T02120187  RH  085%=      5-min Rain = 0
KPD2 270636Z 12009KT 21/19 A2986 RMK A01 T02120186  RH  085%=      5-min Rain = 0
KPD2 270637Z 13008KT 21/19 A2986 RMK A01 T02120186  RH  085%=      5-min Rain = 0
KPD2 270638Z 15008KT 21/19 A2986 RMK A01 T02120186  RH  085%=      5-min Rain = 0
KPD2 270639Z 13008KT 21/19 A2986 RMK A01 T02120186  RH  085%=      5-min Rain = 0
KPD2 270640Z 13007KT 21/19 A2986 RMK A01 T02120186  RH  085%=      5-min Rain = 0
KPD2 270641Z 13010KT 21/19 A2986 RMK A01 T02120186  RH  085%=      5-min Rain = 0
KPD2 270642Z 12008KT 21/19 A2986 RMK A01 T02110186  RH  085%=      5-min Rain = 0
KPD2 270643Z 12007KT 21/19 A2986 RMK A01 T02110186  RH  086%=      5-min Rain = 0
KPD2 270644Z 11009KT 21/19 A2986 RMK A01 T02110186  RH  086%=      5-min Rain = 0
KPD2 270645Z 11008KT 21/19 A2986 RMK A01 T02110186  RH  086%=      5-min Rain = 0
KPD2 270646Z 11008KT 21/19 A2986 RMK A01 T02100186  RH  086%=      5-min Rain = 0
KPD2 270647Z 12007KT 21/19 A2986 RMK A01 T02100186  RH  086%=      5-min Rain = 0
KPD2 270648Z 11006KT 21/19 A2986 RMK A01 T02100186  RH  086%=      5-min Rain = 0
KPD2 270649Z 10006KT 21/19 A2986 RMK A01 T02100186  RH  086%=      5-min Rain = 0
KPD2 270650Z 12008KT 21/19 A2986 RMK A01 T02090186  RH  086%=      5-min Rain = 0
KPD2 270651Z 12007KT 21/19 A2986 RMK A01 T02090186  RH  086%=      5-min Rain = 0
KPD2 270652Z 13007KT 21/19 A2986 RMK A01 T02090186  RH  087%=      5-min Rain = 0
KPD2 270653Z 11007KT 21/19 A2986 RMK A01 T02090186  RH  087%=      5-min Rain = 0
KPD2 270654Z 12007KT 21/19 A2986 RMK A01 T02090186  RH  087%=      5-min Rain = 0
KPD2 270655Z 11007KT 21/19 A2986 RMK A01 T02080186  RH  087%=      5-min Rain = 0
KPD2 270656Z 12008KT 21/19 A2986 RMK A01 T02080186  RH  087%=      5-min Rain = 0
KPD2 270657Z 12005KT 21/19 A2986 RMK A01 T02080185  RH  087%=      5-min Rain = 0
KPD2 270658Z 12007KT 21/19 A2986 RMK A01 T02080186  RH  087%=      5-min Rain = 0
KPD2 270659Z 11006KT 21/19 A2986 RMK A01 T02070185  RH  087%=      5-min Rain = 0
KPD2 270700Z 12007KT 21/19 A2986 RMK A01 T02070185  RH  087%=      5-min Rain = 0
KPD2 270701Z 12006KT 21/19 A2986 RMK A01 T02070185  RH  087%=      5-min Rain = 0
KPD2 270702Z 11006KT 21/19 A2986 RMK A01 T02070185  RH  088%=      5-min Rain = 0
KPD2 270703Z 11007KT 21/19 A2986 RMK A01 T02070185  RH  088%=      5-min Rain = 0
KPD2 270704Z 12007KT 21/19 A2986 RMK A01 T02060185  RH  088%=      5-min Rain = 0
KPD2 270705Z 11007KT 21/19 A2986 RMK A01 T02060185  RH  088%=      5-min Rain = 0
KPD2 270706Z 11007KT 21/19 A2986 RMK A01 T02070185  RH  088%=      5-min Rain = 0
KPD2 270707Z 11006KT 21/19 A2986 RMK A01 T02060185  RH  087%=      5-min Rain = 0
KPD2 270708Z 12005KT 21/19 A2986 RMK A01 T02060185  RH  087%=      5-min Rain = 0
KPD2 270709Z 11006KT 21/19 A2986 RMK A01 T02070185  RH  088%=      5-min Rain = 0
KPD2 270710Z 11005KT 21/19 A2986 RMK A01 T02060185  RH  088%=      5-min Rain = 0
KPD2 270711Z 11008KT 21/19 A2986 RMK A01 T02060185  RH  088%=      5-min Rain = 0
KPD2 270712Z 11007KT 21/19 A2986 RMK A01 T02060185  RH  088%=      5-min Rain = 0
KPD2 270713Z 11007KT 21/19 A2986 RMK A01 T02060185  RH  088%=      5-min Rain = 0
KPD2 270714Z 12008KT 21/19 A2986 RMK A01 T02060185  RH  088%=      5-min Rain = 0
KPD2 270715Z 12007KT 21/19 A2986 RMK A01 T02060185  RH  088%=      5-min Rain = 0
KPD2 270716Z 12007KT 21/19 A2986 RMK A01 T02060185  RH  088%=      5-min Rain = 0
KPD2 270717Z 11005KT 21/19 A2986 RMK A01 T02050185  RH  088%=      5-min Rain = 0
KPD2 270718Z 12007KT 21/19 A2986 RMK A01 T02050185  RH  088%=      5-min Rain = 0
KPD2 270719Z 12005KT 20/19 A2986 RMK A01 T02040185  RH  088%=      5-min Rain = 0
KPD2 270720Z 12005KT 20/19 A2986 RMK A01 T02040185  RH  089%=      5-min Rain = 0
KPD2 270721Z 11007KT 20/18 A2985 RMK A01 T02030184  RH  089%=      5-min Rain = 0
KPD2 270722Z 11009KT 20/18 A2985 RMK A01 T02030184  RH  089%=      5-min Rain = 0
KPD2 270723Z 12008KT 20/18 A2985 RMK A01 T02030184  RH  089%=      5-min Rain = 0
KPD2 270724Z 12007KT 20/18 A2986 RMK A01 T02030184  RH  089%=      5-min Rain = 0
KPD2 270725Z 12006KT 20/18 A2986 RMK A01 T02040184  RH  088%=      5-min Rain = 0
KPD2 270726Z 12006KT 20/18 A2986 RMK A01 T02040184  RH  088%=      5-min Rain = 0
KPD2 270727Z 13005KT 20/18 A2986 RMK A01 T02040184  RH  088%=      5-min Rain = 0
KPD2 270728Z 12007KT 20/18 A2985 RMK A01 T02040184  RH  089%=      5-min Rain = 0
KPD2 270729Z 11007KT 20/18 A2985 RMK A01 T02030184  RH  089%=      5-min Rain = 0
KPD2 270730Z 11006KT 20/18 A2985 RMK A01 T02030184  RH  089%=      5-min Rain = 0
KPD2 270731Z 11005KT 20/18 A2985 RMK A01 T02030184  RH  089%=      5-min Rain = 0
KPD2 270732Z 11006KT 20/18 A2985 RMK A01 T02030184  RH  089%=      5-min Rain = 0
KPD2 270733Z 11007KT 20/18 A2985 RMK A01 T02030184  RH  089%=      5-min Rain = 0
KPD2 270734Z 12005KT 20/18 A2985 RMK A01 T02030184  RH  089%=      5-min Rain = 0
KPD2 270735Z 12005KT 20/18 A2985 RMK A01 T02030184  RH  089%=      5-min Rain = 0
KPD2 270736Z 12005KT 20/18 A2985 RMK A01 T02030184  RH  089%=      5-min Rain = 0
KPD2 270737Z 12006KT 20/18 A2985 RMK A01 T02030184  RH  089%=      5-min Rain = 0
KPD2 270738Z 12005KT 20/18 A2985 RMK A01 T02030184  RH  089%=      5-min Rain = 0
KPD2 270739Z 11006KT 20/18 A2985 RMK A01 T02020184  RH  089%=      5-min Rain = 0
KPD2 270740Z 11004KT 20/18 A2985 RMK A01 T02020184  RH  089%=      5-min Rain = 0
KPD2 270741Z 11007KT 20/18 A2985 RMK A01 T02020184  RH  089%=      5-min Rain = 0
KPD2 270742Z 11005KT 20/18 A2985 RMK A01 T02020184  RH  089%=      5-min Rain = 0
KPD2 270743Z 12007KT 20/18 A2985 RMK A01 T02020183  RH  089%=      5-min Rain = 0
KPD2 270744Z 11005KT 20/18 A2985 RMK A01 T02030184  RH  089%=      5-min Rain = 0
KPD2 270745Z 11005KT 20/18 A2985 RMK A01 T02030184  RH  089%=      5-min Rain = 0
KPD2 270746Z 11004KT 20/18 A2985 RMK A01 T02030184  RH  089%=      5-min Rain = 0
KPD2 270747Z 10005KT 20/18 A2985 RMK A01 T02020183  RH  089%=      5-min Rain = 0
KPD2 270748Z 10005KT 20/18 A2985 RMK A01 T02030184  RH  089%=      5-min Rain = 0
KPD2 270749Z 10005KT 20/18 A2985 RMK A01 T02020184  RH  089%=      5-min Rain = 0
KPD2 270750Z 10005KT 20/18 A2985 RMK A01 T02020184  RH  089%=      5-min Rain = 0
KPD2 270751Z 10005KT 20/18 A2985 RMK A01 T02020183  RH  089%=      5-min Rain = 0
KPD2 270752Z 11005KT 20/18 A2985 RMK A01 T02020183  RH  089%=      5-min Rain = 0
KPD2 270753Z 11006KT 20/18 A2985 RMK A01 T02030183  RH  089%=      5-min Rain = 0
KPD2 270754Z 11004KT 20/18 A2985 RMK A01 T02020183  RH  089%=      5-min Rain = 0
KPD2 270755Z 11005KT 20/18 A2985 RMK A01 T02020183  RH  089%=      5-min Rain = 0
KPD2 270756Z 11005KT 20/18 A2985 RMK A01 T02020183  RH  089%=      5-min Rain = 0
KPD2 270757Z 10006KT 20/18 A2985 RMK A01 T02020183  RH  089%=      5-min Rain = 0
KPD2 270758Z 10006KT 20/18 A2985 RMK A01 T02020183  RH  089%=      5-min Rain = 0
KPD2 270759Z 10007KT 20/18 A2985 RMK A01 T02010183  RH  089%=      5-min Rain = 0
KPD2 270800Z 10006KT 20/18 A2985 RMK A01 T02020183  RH  089%=      5-min Rain = 0
KPD2 270801Z 10006KT 20/18 A2985 RMK A01 T02020183  RH  089%=      5-min Rain = 0
KPD2 270802Z 11005KT 20/18 A2985 RMK A01 T02030183  RH  088%=      5-min Rain = 0
KPD2 270803Z 10005KT 20/18 A2985 RMK A01 T02030183  RH  088%=      5-min Rain = 0
KPD2 270804Z 13004KT 20/18 A2985 RMK A01 T02030183  RH  088%=      5-min Rain = 0
KPD2 270805Z 11005KT 20/18 A2985 RMK A01 T02030183  RH  088%=      5-min Rain = 0
KPD2 270806Z 11004KT 20/18 A2985 RMK A01 T02020182  RH  089%=      5-min Rain = 0
KPD2 270807Z 11003KT 20/18 A2985 RMK A01 T02010182  RH  089%=      5-min Rain = 0
KPD2 270808Z 11005KT 20/18 A2985 RMK A01 T02010182  RH  089%=      5-min Rain = 0
KPD2 270809Z 11005KT 20/18 A2985 RMK A01 T02000182  RH  089%=      5-min Rain = 0
KPD2 270810Z 11004KT 20/18 A2985 RMK A01 T02000182  RH  089%=      5-min Rain = 0
KPD2 270811Z 12004KT 20/18 A2985 RMK A01 T02000182  RH  090%=      5-min Rain = 0
KPD2 270812Z 12004KT 20/18 A2985 RMK A01 T01990182  RH  090%=      5-min Rain = 0
KPD2 270813Z 11003KT 20/18 A2985 RMK A01 T01990182  RH  090%=      5-min Rain = 0
KPD2 270814Z 13004KT 20/18 A2985 RMK A01 T01990182  RH  090%=      5-min Rain = 0
KPD2 270815Z 12003KT 20/18 A2985 RMK A01 T01990182  RH  090%=      5-min Rain = 0
KPD2 270816Z 10005KT 20/18 A2985 RMK A01 T01980182  RH  090%=      5-min Rain = 0
KPD2 270817Z 10006KT 20/18 A2984 RMK A01 T01980182  RH  090%=      5-min Rain = 0
KPD2 270818Z 10005KT 20/18 A2984 RMK A01 T01980182  RH  091%=      5-min Rain = 0
KPD2 270819Z 12003KT 20/18 A2985 RMK A01 T01980182  RH  091%=      5-min Rain = 0
KPD2 270820Z 12004KT 20/18 A2985 RMK A01 T01980182  RH  091%=      5-min Rain = 0
KPD2 270821Z 12005KT 20/18 A2985 RMK A01 T01980182  RH  091%=      5-min Rain = 0
KPD2 270822Z 12005KT 20/18 A2984 RMK A01 T01980182  RH  091%=      5-min Rain = 0
KPD2 270823Z 12003KT 20/18 A2984 RMK A01 T01970182  RH  091%=      5-min Rain = 0
KPD2 270824Z 13004KT 20/18 A2984 RMK A01 T01970182  RH  091%=      5-min Rain = 0
KPD2 270825Z 13004KT 20/18 A2984 RMK A01 T01970181  RH  091%=      5-min Rain = 0
KPD2 270826Z 13004KT 20/18 A2984 RMK A01 T01960181  RH  091%=      5-min Rain = 0
KPD2 270827Z 13004KT 20/18 A2984 RMK A01 T01960181  RH  091%=      5-min Rain = 0
KPD2 270828Z 11004KT 20/18 A2984 RMK A01 T01960181  RH  091%=      5-min Rain = 0
KPD2 270829Z 12004KT 20/18 A2984 RMK A01 T01950181  RH  091%=      5-min Rain = 0
KPD2 270830Z 13005KT 20/18 A2984 RMK A01 T01950181  RH  092%=      5-min Rain = 0
KPD2 270831Z 12006KT 20/18 A2984 RMK A01 T01950181  RH  092%=      5-min Rain = 0
KPD2 270832Z 12005KT 20/18 A2984 RMK A01 T01950181  RH  092%=      5-min Rain = 0
KPD2 270833Z 12005KT 19/18 A2984 RMK A01 T01940181  RH  092%=      5-min Rain = 0
KPD2 270834Z 12005KT 19/18 A2984 RMK A01 T01940181  RH  092%=      5-min Rain = 0
KPD2 270835Z 12006KT 19/18 A2984 RMK A01 T01930181  RH  092%=      5-min Rain = 0
KPD2 270836Z 12006KT 19/18 A2984 RMK A01 T01940181  RH  092%=      5-min Rain = 0
KPD2 270837Z 12005KT 19/18 A2984 RMK A01 T01930181  RH  093%=      5-min Rain = 0
KPD2 270838Z 12005KT 19/18 A2984 RMK A01 T01930181  RH  093%=      5-min Rain = 0
KPD2 270839Z 12005KT 19/18 A2984 RMK A01 T01930181  RH  093%=      5-min Rain = 0
KPD2 270840Z 12005KT 19/18 A2984 RMK A01 T01920181  RH  093%=      5-min Rain = 0
KPD2 270841Z 13006KT 19/18 A2984 RMK A01 T01920181  RH  093%=      5-min Rain = 0
KPD2 270842Z 12004KT 19/18 A2984 RMK A01 T01920181  RH  093%=      5-min Rain = 0
KPD2 270843Z 11006KT 19/18 A2984 RMK A01 T01920180  RH  093%=      5-min Rain = 0
KPD2 270844Z 12005KT 19/18 A2984 RMK A01 T01920181  RH  093%=      5-min Rain = 0
KPD2 270845Z 12004KT 19/18 A2984 RMK A01 T01920181  RH  093%=      5-min Rain = 0
KPD2 270846Z 12006KT 19/18 A2984 RMK A01 T01910180  RH  093%=      5-min Rain = 0
KPD2 270847Z 11005KT 19/18 A2984 RMK A01 T01910181  RH  094%=      5-min Rain = 0
KPD2 270848Z 11005KT 19/18 A2984 RMK A01 T01910181  RH  094%=      5-min Rain = 0
KPD2 270849Z 11005KT 19/18 A2984 RMK A01 T01900180  RH  094%=      5-min Rain = 0
KPD2 270850Z 11006KT 19/18 A2984 RMK A01 T01900180  RH  094%=      5-min Rain = 0
KPD2 270851Z 11004KT 19/18 A2984 RMK A01 T01910181  RH  094%=      5-min Rain = 0
KPD2 270852Z 10004KT 19/18 A2984 RMK A01 T01900181  RH  094%=      5-min Rain = 0
KPD2 270853Z 11003KT 19/18 A2984 RMK A01 T01900180  RH  094%=      5-min Rain = 0
KPD2 270854Z 10004KT 19/18 A2984 RMK A01 T01900180  RH  094%=      5-min Rain = 0
KPD2 270855Z 12004KT 19/18 A2984 RMK A01 T01900180  RH  094%=      5-min Rain = 0
KPD2 270856Z 13003KT 19/18 A2984 RMK A01 T01900180  RH  094%=      5-min Rain = 0
KPD2 270857Z 13004KT 19/18 A2984 RMK A01 T01900180  RH  094%=      5-min Rain = 0
KPD2 270858Z 13004KT 19/18 A2984 RMK A01 T01900180  RH  094%=      5-min Rain = 0
KPD2 270859Z 12004KT 19/18 A2984 RMK A01 T01900180  RH  094%=      5-min Rain = 0
KPD2 270900Z 13004KT 19/18 A2984 RMK A01 T01900180  RH  094%=      5-min Rain = 0
KPD2 270901Z 11004KT 19/18 A2984 RMK A01 T01900180  RH  094%=      5-min Rain = 0
KPD2 270902Z 11004KT 19/18 A2984 RMK A01 T01900180  RH  094%=      5-min Rain = 0
KPD2 270903Z 12004KT 19/18 A2984 RMK A01 T01900179  RH  094%=      5-min Rain = 0
KPD2 270904Z 12004KT 19/18 A2984 RMK A01 T01890180  RH  094%=      5-min Rain = 0
KPD2 270905Z 12005KT 19/18 A2984 RMK A01 T01890180  RH  094%=      5-min Rain = 0
KPD2 270906Z 12004KT 19/18 A2984 RMK A01 T01890179  RH  094%=      5-min Rain = 0
KPD2 270907Z 12004KT 19/18 A2984 RMK A01 T01890179  RH  094%=      5-min Rain = 0
KPD2 270908Z 11004KT 19/18 A2984 RMK A01 T01890179  RH  094%=      5-min Rain = 0
KPD2 270909Z 11004KT 19/18 A2984 RMK A01 T01890179  RH  094%=      5-min Rain = 0
KPD2 270910Z 13004KT 19/18 A2984 RMK A01 T01880179  RH  094%=      5-min Rain = 0
KPD2 270911Z 12004KT 19/18 A2984 RMK A01 T01880179  RH  095%=      5-min Rain = 0
KPD2 270912Z 13002KT 19/18 A2984 RMK A01 T01880179  RH  095%=      5-min Rain = 0
KPD2 270913Z 12003KT 19/18 A2984 RMK A01 T01870178  RH  095%=      5-min Rain = 0
KPD2 270914Z 12004KT 19/18 A2984 RMK A01 T01870179  RH  095%=      5-min Rain = 0
KPD2 270915Z 13004KT 19/18 A2984 RMK A01 T01870178  RH  095%=      5-min Rain = 0
KPD2 270916Z 12004KT 19/18 A2984 RMK A01 T01870179  RH  095%=      5-min Rain = 0
KPD2 270917Z 12003KT 19/18 A2984 RMK A01 T01870178  RH  095%=      5-min Rain = 0
KPD2 270918Z 12002KT 19/18 A2984 RMK A01 T01860178  RH  095%=      5-min Rain = 0
KPD2 270919Z 14002KT 19/18 A2984 RMK A01 T01860178  RH  095%=      5-min Rain = 0
KPD2 270920Z 13003KT 19/18 A2984 RMK A01 T01860178  RH  095%=      5-min Rain = 0
KPD2 270921Z 12003KT 19/18 A2984 RMK A01 T01850177  RH  095%=      5-min Rain = 0
KPD2 270922Z 14002KT 19/18 A2984 RMK A01 T01850177  RH  095%=      5-min Rain = 0
KPD2 270923Z 13003KT 19/18 A2984 RMK A01 T01850177  RH  095%=      5-min Rain = 0
KPD2 270924Z 14003KT 19/18 A2984 RMK A01 T01850177  RH  095%=      5-min Rain = 0
KPD2 270925Z 15003KT 19/18 A2984 RMK A01 T01850178  RH  095%=      5-min Rain = 0
KPD2 270926Z 17003KT 19/18 A2984 RMK A01 T01850178  RH  096%=      5-min Rain = 0
KPD2 270927Z 15004KT 19/18 A2984 RMK A01 T01850178  RH  096%=      5-min Rain = 0
KPD2 270928Z 13003KT 19/18 A2984 RMK A01 T01850178  RH  095%=      5-min Rain = 0
KPD2 270929Z 13003KT 19/18 A2984 RMK A01 T01850178  RH  095%=      5-min Rain = 0
KPD2 270930Z 12003KT 19/18 A2984 RMK A01 T01850177  RH  095%=      5-min Rain = 0
KPD2 270931Z 11003KT 18/18 A2984 RMK A01 T01840177  RH  095%=      5-min Rain = 0
KPD2 270932Z 11003KT 18/18 A2984 RMK A01 T01840177  RH  095%=      5-min Rain = 0
KPD2 270933Z 11003KT 18/18 A2984 RMK A01 T01840176  RH  096%=      5-min Rain = 0
KPD2 270934Z 11003KT 18/18 A2984 RMK A01 T01840177  RH  096%=      5-min Rain = 0
KPD2 270935Z 11003KT 18/18 A2984 RMK A01 T01840177  RH  096%=      5-min Rain = 0
KPD2 270936Z 11003KT 18/18 A2984 RMK A01 T01840177  RH  096%=      5-min Rain = 0
KPD2 270937Z 12003KT 18/18 A2984 RMK A01 T01840177  RH  096%=      5-min Rain = 0
KPD2 270938Z 10004KT 18/18 A2984 RMK A01 T01830177  RH  096%=      5-min Rain = 0
KPD2 270939Z 11003KT 18/18 A2984 RMK A01 T01830177  RH  096%=      5-min Rain = 0
KPD2 270940Z 11003KT 18/18 A2984 RMK A01 T01830177  RH  096%=      5-min Rain = 0
KPD2 270941Z 11003KT 18/18 A2984 RMK A01 T01830177  RH  096%=      5-min Rain = 0
KPD2 270942Z 11003KT 18/18 A2984 RMK A01 T01830177  RH  096%=      5-min Rain = 0
KPD2 270943Z 12003KT 18/18 A2985 RMK A01 T01840178  RH  096%=      5-min Rain = 0
KPD2 270944Z 12004KT 18/18 A2985 RMK A01 T01830177  RH  096%=      5-min Rain = 0
KPD2 270945Z 11003KT 18/18 A2985 RMK A01 T01830177  RH  096%=      5-min Rain = 0
KPD2 270946Z 12003KT 18/18 A2985 RMK A01 T01840177  RH  096%=      5-min Rain = 0
KPD2 270947Z 12002KT 18/18 A2985 RMK A01 T01830177  RH  096%=      5-min Rain = 0
KPD2 270948Z 10004KT 18/18 A2985 RMK A01 T01840177  RH  096%=      5-min Rain = 0
KPD2 270949Z 12003KT 18/18 A2985 RMK A01 T01830177  RH  096%=      5-min Rain = 0
KPD2 270950Z 11003KT 18/18 A2985 RMK A01 T01830177  RH  096%=      5-min Rain = 0
KPD2 270951Z 11003KT 18/18 A2985 RMK A01 T01830178  RH  096%=      5-min Rain = 0
KPD2 270952Z 11004KT 18/18 A2985 RMK A01 T01840178  RH  096%=      5-min Rain = 0
KPD2 270953Z 11004KT 18/18 A2985 RMK A01 T01840177  RH  096%=      5-min Rain = 0
KPD2 270954Z 11003KT 18/18 A2985 RMK A01 T01840178  RH  096%=      5-min Rain = 0
KPD2 270955Z 10003KT 18/18 A2985 RMK A01 T01840178  RH  096%=      5-min Rain = 0
KPD2 270956Z 10004KT 18/18 A2985 RMK A01 T01840178  RH  096%=      5-min Rain = 0
KPD2 270957Z 10004KT 18/18 A2985 RMK A01 T01840178  RH  096%=      5-min Rain = 0
KPD2 270958Z 11003KT 18/18 A2985 RMK A01 T01830177  RH  096%=      5-min Rain = 0
KPD2 270959Z 13003KT 18/18 A2985 RMK A01 T01840178  RH  096%=      5-min Rain = 0
KPD2 271000Z 12004KT 18/18 A2985 RMK A01 T01840178  RH  096%=      5-min Rain = 0
KPD2 271001Z 12003KT 18/18 A2985 RMK A01 T01840177  RH  096%=      5-min Rain = 0
KPD2 271002Z 11004KT 18/18 A2985 RMK A01 T01840178  RH  096%=      5-min Rain = 0
KPD2 271003Z 11002KT 18/18 A2985 RMK A01 T01840177  RH  096%=      5-min Rain = 0
KPD2 271004Z 10004KT 18/18 A2985 RMK A01 T01840177  RH  096%=      5-min Rain = 0
KPD2 271005Z 10004KT 18/18 A2985 RMK A01 T01840177  RH  096%=      5-min Rain = 0
KPD2 271006Z 10003KT 18/18 A2984 RMK A01 T01840177  RH  096%=      5-min Rain = 0
KPD2 271007Z 10004KT 18/18 A2985 RMK A01 T01840177  RH  096%=      5-min Rain = 0
KPD2 271008Z 10004KT 18/18 A2985 RMK A01 T01840177  RH  096%=      5-min Rain = 0
KPD2 271009Z 09004KT 19/18 A2985 RMK A01 T01850178  RH  096%=      5-min Rain = 0
KPD2 271010Z 10004KT 19/18 A2985 RMK A01 T01850178  RH  096%=      5-min Rain = 0
KPD2 271011Z 10004KT 19/18 A2985 RMK A01 T01850178  RH  095%=      5-min Rain = 0
KPD2 271012Z 11002KT 19/18 A2985 RMK A01 T01860178  RH  095%=      5-min Rain = 0
KPD2 271013Z 11003KT 19/18 A2985 RMK A01 T01850177  RH  095%=      5-min Rain = 0
KPD2 271014Z 10004KT 19/18 A2985 RMK A01 T01860178  RH  095%=      5-min Rain = 0
KPD2 271015Z 09004KT 19/18 A2985 RMK A01 T01860178  RH  095%=      5-min Rain = 0
KPD2 271016Z 11003KT 19/18 A2985 RMK A01 T01870178  RH  095%=      5-min Rain = 0
KPD2 271017Z 11003KT 19/18 A2985 RMK A01 T01870178  RH  094%=      5-min Rain = 0
KPD2 271018Z 12004KT 19/18 A2985 RMK A01 T01870177  RH  094%=      5-min Rain = 0
KPD2 271019Z 11003KT 19/18 A2985 RMK A01 T01870178  RH  094%=      5-min Rain = 0
KPD2 271020Z 10004KT 19/18 A2985 RMK A01 T01870177  RH  094%=      5-min Rain = 0
KPD2 271021Z 10003KT 19/18 A2985 RMK A01 T01870177  RH  094%=      5-min Rain = 0
KPD2 271022Z 10004KT 19/18 A2985 RMK A01 T01870177  RH  094%=      5-min Rain = 0
KPD2 271023Z 10005KT 19/18 A2985 RMK A01 T01870177  RH  094%=      5-min Rain = 0
KPD2 271024Z 10002KT 19/18 A2985 RMK A01 T01880177  RH  094%=      5-min Rain = 0
KPD2 271025Z 11003KT 19/18 A2985 RMK A01 T01880177  RH  093%=      5-min Rain = 0
KPD2 271026Z 12003KT 19/18 A2985 RMK A01 T01880177  RH  093%=      5-min Rain = 0
KPD2 271027Z 16002KT 19/18 A2985 RMK A01 T01880177  RH  093%=      5-min Rain = 0
KPD2 271028Z 14003KT 19/18 A2985 RMK A01 T01870175  RH  093%=      5-min Rain = 0
KPD2 271029Z 13002KT 19/18 A2985 RMK A01 T01860175  RH  093%=      5-min Rain = 0
KPD2 271030Z 12000KT 19/18 A2985 RMK A01 T01860175  RH  093%=      5-min Rain = 0
KPD2 271031Z 13002KT 19/18 A2985 RMK A01 T01850175  RH  094%=      5-min Rain = 0
KPD2 271032Z 14003KT 19/18 A2985 RMK A01 T01850175  RH  094%=      5-min Rain = 0
KPD2 271033Z 12002KT 19/18 A2985 RMK A01 T01850175  RH  094%=      5-min Rain = 0
KPD2 271034Z 12003KT 18/18 A2985 RMK A01 T01840175  RH  094%=      5-min Rain = 0
KPD2 271035Z 13004KT 19/18 A2985 RMK A01 T01850175  RH  094%=      5-min Rain = 0
KPD2 271036Z 15003KT 18/18 A2985 RMK A01 T01840175  RH  094%=      5-min Rain = 0
KPD2 271037Z 19004KT 18/18 A2985 RMK A01 T01840175  RH  094%=      5-min Rain = 0
KPD2 271038Z 19003KT 18/17 A2985 RMK A01 T01840173  RH  094%=      5-min Rain = 0
KPD2 271039Z 15002KT 18/17 A2985 RMK A01 T01830173  RH  094%=      5-min Rain = 0
KPD2 271040Z 15002KT 18/17 A2985 RMK A01 T01820172  RH  094%=      5-min Rain = 0
KPD2 271041Z 16002KT 18/17 A2985 RMK A01 T01820172  RH  094%=      5-min Rain = 0
KPD2 271042Z 12003KT 18/17 A2985 RMK A01 T01820173  RH  094%=      5-min Rain = 0
KPD2 271043Z 12003KT 18/17 A2985 RMK A01 T01820172  RH  094%=      5-min Rain = 0
KPD2 271044Z 13004KT 18/17 A2985 RMK A01 T01810172  RH  094%=      5-min Rain = 0
KPD2 271045Z 14005KT 18/17 A2985 RMK A01 T01800171  RH  094%=      5-min Rain = 0
KPD2 271046Z 12004KT 18/17 A2985 RMK A01 T01800171  RH  095%=      5-min Rain = 0
KPD2 271047Z 12002KT 18/17 A2985 RMK A01 T01800172  RH  095%=      5-min Rain = 0
KPD2 271048Z 12002KT 18/17 A2985 RMK A01 T01800171  RH  095%=      5-min Rain = 0
KPD2 271049Z 15002KT 18/17 A2985 RMK A01 T01800172  RH  095%=      5-min Rain = 0
KPD2 271050Z 17003KT 18/17 A2985 RMK A01 T01800172  RH  095%=      5-min Rain = 0
KPD2 271051Z 14003KT 18/17 A2985 RMK A01 T01810173  RH  095%=      5-min Rain = 0
KPD2 271052Z 14002KT 18/17 A2985 RMK A01 T01810173  RH  095%=      5-min Rain = 0
KPD2 271053Z 12003KT 18/17 A2985 RMK A01 T01810173  RH  095%=      5-min Rain = 0
KPD2 271054Z 12004KT 18/17 A2985 RMK A01 T01820173  RH  095%=      5-min Rain = 0
KPD2 271055Z 14003KT 18/17 A2985 RMK A01 T01810173  RH  095%=      5-min Rain = 0
KPD2 271056Z 13005KT 18/17 A2985 RMK A01 T01800172  RH  095%=      5-min Rain = 0
KPD2 271057Z 14004KT 18/17 A2985 RMK A01 T01810173  RH  095%=      5-min Rain = 0
KPD2 271058Z 14003KT 18/17 A2985 RMK A01 T01810173  RH  095%=      5-min Rain = 0
KPD2 271059Z 14004KT 18/17 A2985 RMK A01 T01820174  RH  095%=      5-min Rain = 0
KPD2 271100Z 12004KT 18/17 A2985 RMK A01 T01830174  RH  095%=      5-min Rain = 0
KPD2 271101Z 12002KT 18/18 A2985 RMK A01 T01840175  RH  094%=      5-min Rain = 0
KPD2 271102Z 12002KT 18/17 A2986 RMK A01 T01840174  RH  094%=      5-min Rain = 0
KPD2 271103Z 13003KT 18/17 A2986 RMK A01 T01840174  RH  094%=      5-min Rain = 0
KPD2 271104Z 13002KT 18/17 A2986 RMK A01 T01840174  RH  094%=      5-min Rain = 0
KPD2 271105Z 13002KT 18/17 A2986 RMK A01 T01840174  RH  094%=      5-min Rain = 0
KPD2 271106Z 13002KT 18/17 A2986 RMK A01 T01830173  RH  094%=      5-min Rain = 0
KPD2 271107Z 14002KT 18/17 A2986 RMK A01 T01840174  RH  094%=      5-min Rain = 0
KPD2 271108Z 17001KT 18/17 A2986 RMK A01 T01840173  RH  094%=      5-min Rain = 0
KPD2 271109Z 18001KT 18/17 A2986 RMK A01 T01830173  RH  094%=      5-min Rain = 0
KPD2 271110Z 13002KT 18/17 A2986 RMK A01 T01830172  RH  094%=      5-min Rain = 0
KPD2 271111Z 13002KT 18/17 A2986 RMK A01 T01820172  RH  094%=      5-min Rain = 0
KPD2 271112Z 15002KT 18/17 A2986 RMK A01 T01820172  RH  094%=      5-min Rain = 0
KPD2 271113Z 13003KT 18/17 A2986 RMK A01 T01810171  RH  094%=      5-min Rain = 0
KPD2 271114Z 14003KT 18/17 A2986 RMK A01 T01810171  RH  094%=      5-min Rain = 0
KPD2 271115Z 14003KT 18/17 A2986 RMK A01 T01800170  RH  094%=      5-min Rain = 0
KPD2 271116Z 13002KT 18/17 A2986 RMK A01 T01800172  RH  095%=      5-min Rain = 0
KPD2 271117Z 12003KT 18/17 A2986 RMK A01 T01800172  RH  095%=      5-min Rain = 0
KPD2 271118Z 15002KT 18/17 A2986 RMK A01 T01800172  RH  095%=      5-min Rain = 0
KPD2 271119Z 15001KT 18/17 A2986 RMK A01 T01800172  RH  095%=      5-min Rain = 0
KPD2 271120Z 12002KT 18/17 A2986 RMK A01 T01800171  RH  095%=      5-min Rain = 0
KPD2 271121Z 15003KT 18/17 A2986 RMK A01 T01790171  RH  095%=      5-min Rain = 0
KPD2 271122Z 14002KT 18/17 A2986 RMK A01 T01790171  RH  095%=      5-min Rain = 0
KPD2 271123Z 15002KT 18/17 A2986 RMK A01 T01780170  RH  095%=      5-min Rain = 0
KPD2 271124Z 15002KT 18/17 A2986 RMK A01 T01780170  RH  095%=      5-min Rain = 0
KPD2 271125Z 14002KT 18/17 A2986 RMK A01 T01770169  RH  095%=      5-min Rain = 0
KPD2 271126Z 12002KT 18/17 A2986 RMK A01 T01770169  RH  095%=      5-min Rain = 0
KPD2 271127Z 11002KT 18/17 A2986 RMK A01 T01760168  RH  095%=      5-min Rain = 0
KPD2 271128Z 09001KT 18/17 A2986 RMK A01 T01760168  RH  095%=      5-min Rain = 0
KPD2 271129Z 07001KT 18/17 A2986 RMK A01 T01750168  RH  095%=      5-min Rain = 0
KPD2 271130Z 13002KT 18/17 A2986 RMK A01 T01750167  RH  095%=      5-min Rain = 0
KPD2 271131Z 10002KT 17/17 A2986 RMK A01 T01740166  RH  095%=      5-min Rain = 0
KPD2 271132Z 11002KT 17/17 A2986 RMK A01 T01740166  RH  096%=      5-min Rain = 0
KPD2 271133Z 09001KT 17/17 A2986 RMK A01 T01730166  RH  096%=      5-min Rain = 0
KPD2 271134Z 22001KT 17/17 A2986 RMK A01 T01720165  RH  095%=      5-min Rain = 0
KPD2 271135Z 24002KT 17/16 A2986 RMK A01 T01710164  RH  095%=      5-min Rain = 0
KPD2 271136Z 21001KT 17/16 A2986 RMK A01 T01710164  RH  096%=      5-min Rain = 0
KPD2 271137Z 15001KT 17/16 A2986 RMK A01 T01710164  RH  096%=      5-min Rain = 0
KPD2 271138Z 13002KT 17/17 A2986 RMK A01 T01710165  RH  096%=      5-min Rain = 0
KPD2 271139Z 10002KT 17/17 A2986 RMK A01 T01710165  RH  096%=      5-min Rain = 0
KPD2 271140Z 10002KT 17/17 A2986 RMK A01 T01720167  RH  097%=      5-min Rain = 0
KPD2 271141Z 11003KT 17/17 A2986 RMK A01 T01730167  RH  097%=      5-min Rain = 0
KPD2 271142Z 10004KT 17/17 A2986 RMK A01 T01730168  RH  097%=      5-min Rain = 0
KPD2 271143Z 11002KT 17/17 A2986 RMK A01 T01720167  RH  097%=      5-min Rain = 0
KPD2 271144Z 10001KT 17/17 A2986 RMK A01 T01720167  RH  097%=      5-min Rain = 0
KPD2 271145Z 11003KT 17/17 A2986 RMK A01 T01720167  RH  097%=      5-min Rain = 0
KPD2 271146Z 12002KT 17/17 A2986 RMK A01 T01720167  RH  097%=      5-min Rain = 0
KPD2 271147Z 14001KT 17/17 A2986 RMK A01 T01730168  RH  097%=      5-min Rain = 0
KPD2 271148Z 17001KT 17/17 A2986 RMK A01 T01740169  RH  097%=      5-min Rain = 0
KPD2 271149Z 17001KT 17/17 A2986 RMK A01 T01740168  RH  097%=      5-min Rain = 0
KPD2 271150Z 11002KT 17/17 A2986 RMK A01 T01730167  RH  097%=      5-min Rain = 0
KPD2 271151Z 12003KT 17/17 A2986 RMK A01 T01730168  RH  097%=      5-min Rain = 0
KPD2 271152Z 11002KT 18/17 A2986 RMK A01 T01750170  RH  097%=      5-min Rain = 0
KPD2 271153Z 10002KT 18/17 A2986 RMK A01 T01750171  RH  097%=      5-min Rain = 0
KPD2 271154Z 10002KT 18/17 A2986 RMK A01 T01760171  RH  097%=      5-min Rain = 0
KPD2 271155Z 14001KT 18/17 A2986 RMK A01 T01760171  RH  097%=      5-min Rain = 0
KPD2 271156Z 13001KT 18/17 A2986 RMK A01 T01760170  RH  097%=      5-min Rain = 0
KPD2 271157Z 10003KT 18/17 A2986 RMK A01 T01750170  RH  096%=      5-min Rain = 0
KPD2 271158Z 10004KT 18/17 A2986 RMK A01 T01750170  RH  097%=      5-min Rain = 0
KPD2 271159Z 10002KT 18/17 A2986 RMK A01 T01750170  RH  097%=      5-min Rain = 0
KPD2 271200Z 09001KT 18/17 A2986 RMK A01 T01750169  RH  097%=      5-min Rain = 0
KPD2 271201Z 23001KT 17/17 A2986 RMK A01 T01730167  RH  096%=      5-min Rain = 0
KPD2 271202Z 21002KT 17/16 A2986 RMK A01 T01700163  RH  095%=      5-min Rain = 0
KPD2 271203Z 19002KT 17/16 A2986 RMK A01 T01690162  RH  095%=      5-min Rain = 0
KPD2 271204Z 13001KT 17/16 A2986 RMK A01 T01690162  RH  096%=      5-min Rain = 0
KPD2 271205Z 12001KT 17/16 A2986 RMK A01 T01690163  RH  096%=      5-min Rain = 0
KPD2 271206Z 16002KT 17/16 A2986 RMK A01 T01690163  RH  096%=      5-min Rain = 0
KPD2 271207Z 15001KT 17/16 A2986 RMK A01 T01680162  RH  096%=      5-min Rain = 0
KPD2 271208Z 24001KT 17/16 A2986 RMK A01 T01680161  RH  096%=      5-min Rain = 0
KPD2 271209Z 24000KT 17/16 A2986 RMK A01 T01660160  RH  096%=      5-min Rain = 0
KPD2 271210Z 00000KT 17/16 A2986 RMK A01 T01660159  RH  096%=      5-min Rain = 0
KPD2 271211Z 12001KT 17/16 A2986 RMK A01 T01660160  RH  096%=      5-min Rain = 0
KPD2 271212Z 13001KT 17/16 A2986 RMK A01 T01660160  RH  096%=      5-min Rain = 0
KPD2 271213Z 11001KT 17/16 A2986 RMK A01 T01660160  RH  096%=      5-min Rain = 0
KPD2 271214Z 15002KT 17/16 A2986 RMK A01 T01660160  RH  097%=      5-min Rain = 0
KPD2 271215Z 11002KT 17/16 A2986 RMK A01 T01660160  RH  097%=      5-min Rain = 0
KPD2 271216Z 09003KT 17/16 A2986 RMK A01 T01660161  RH  097%=      5-min Rain = 0
KPD2 271217Z 11003KT 17/16 A2986 RMK A01 T01660161  RH  097%=      5-min Rain = 0
KPD2 271218Z 10002KT 17/16 A2986 RMK A01 T01660161  RH  097%=      5-min Rain = 0
KPD2 271219Z 08002KT 17/16 A2986 RMK A01 T01660162  RH  097%=      5-min Rain = 0
KPD2 271220Z 09001KT 17/16 A2986 RMK A01 T01660162  RH  097%=      5-min Rain = 0
KPD2 271221Z 11000KT 17/16 A2986 RMK A01 T01660161  RH  097%=      5-min Rain = 0
KPD2 271222Z 15001KT 17/16 A2986 RMK A01 T01660162  RH  097%=      5-min Rain = 0
KPD2 271223Z 13002KT 17/16 A2987 RMK A01 T01660162  RH  097%=      5-min Rain = 0
KPD2 271224Z 10003KT 17/16 A2987 RMK A01 T01670163  RH  097%=      5-min Rain = 0
KPD2 271225Z 10004KT 17/17 A2987 RMK A01 T01680165  RH  098%=      5-min Rain = 0
KPD2 271226Z 13004KT 17/17 A2987 RMK A01 T01710168  RH  098%=      5-min Rain = 0
KPD2 271227Z 13003KT 17/17 A2987 RMK A01 T01730170  RH  098%=      5-min Rain = 0
KPD2 271228Z 10004KT 17/17 A2987 RMK A01 T01740171  RH  098%=      5-min Rain = 0
KPD2 271229Z 11004KT 18/17 A2987 RMK A01 T01750172  RH  098%=      5-min Rain = 0
KPD2 271230Z 10004KT 18/17 A2987 RMK A01 T01760172  RH  098%=      5-min Rain = 0
KPD2 271231Z 14004KT 18/17 A2987 RMK A01 T01770173  RH  098%=      5-min Rain = 0
KPD2 271232Z 10003KT 18/17 A2987 RMK A01 T01780174  RH  098%=      5-min Rain = 0
KPD2 271233Z 12003KT 18/18 A2987 RMK A01 T01800176  RH  097%=      5-min Rain = 0
KPD2 271234Z 13005KT 18/18 A2987 RMK A01 T01810176  RH  097%=      5-min Rain = 0
KPD2 271235Z 10005KT 18/18 A2987 RMK A01 T01820176  RH  096%=      5-min Rain = 0
KPD2 271236Z 11003KT 18/18 A2987 RMK A01 T01830176  RH  096%=      5-min Rain = 0
KPD2 271237Z 13003KT 18/18 A2987 RMK A01 T01840175  RH  095%=      5-min Rain = 0
KPD2 271238Z 10003KT 18/18 A2987 RMK A01 T01840175  RH  094%=      5-min Rain = 0
KPD2 271239Z 09003KT 19/18 A2987 RMK A01 T01850175  RH  094%=      5-min Rain = 0
KPD2 271240Z 12002KT 19/18 A2987 RMK A01 T01850175  RH  094%=      5-min Rain = 0
KPD2 271241Z 10002KT 19/18 A2987 RMK A01 T01850175  RH  094%=      5-min Rain = 0
KPD2 271242Z 10003KT 19/18 A2987 RMK A01 T01860175  RH  093%=      5-min Rain = 0
KPD2 271243Z 05002KT 19/18 A2987 RMK A01 T01860175  RH  093%=      5-min Rain = 0
KPD2 271244Z 10001KT 19/18 A2987 RMK A01 T01870175  RH  093%=      5-min Rain = 0
KPD2 271245Z 16001KT 19/18 A2987 RMK A01 T01880175  RH  092%=      5-min Rain = 0
KPD2 271246Z 09001KT 19/18 A2987 RMK A01 T01880175  RH  092%=      5-min Rain = 0
KPD2 271247Z 35000KT 19/18 A2987 RMK A01 T01890175  RH  091%=      5-min Rain = 0
KPD2 271248Z 00001KT 19/18 A2987 RMK A01 T01900175  RH  091%=      5-min Rain = 0
KPD2 271249Z 01001KT 19/18 A2987 RMK A01 T01910175  RH  091%=      5-min Rain = 0
KPD2 271250Z 09001KT 19/18 A2987 RMK A01 T01910175  RH  091%=      5-min Rain = 0
KPD2 271251Z 08003KT 19/18 A2987 RMK A01 T01910175  RH  091%=      5-min Rain = 0
KPD2 271252Z 13002KT 19/18 A2987 RMK A01 T01910175  RH  091%=      5-min Rain = 0
KPD2 271253Z 16002KT 19/18 A2987 RMK A01 T01910175  RH  090%=      5-min Rain = 0
KPD2 271254Z 15001KT 19/18 A2987 RMK A01 T01910175  RH  090%=      5-min Rain = 0
KPD2 271255Z 15001KT 19/18 A2986 RMK A01 T01920175  RH  090%=      5-min Rain = 0
KPD2 271256Z 18002KT 19/18 A2986 RMK A01 T01930175  RH  089%=      5-min Rain = 0
KPD2 271257Z 15003KT 19/18 A2986 RMK A01 T01940175  RH  089%=      5-min Rain = 0
KPD2 271258Z 11004KT 19/18 A2986 RMK A01 T01940175  RH  089%=      5-min Rain = 0
KPD2 271259Z 09003KT 20/18 A2986 RMK A01 T01950176  RH  089%=      5-min Rain = 0
KPD2 271300Z 12003KT 20/18 A2986 RMK A01 T01950175  RH  088%=      5-min Rain = 0
KPD2 271301Z 14004KT 20/18 A2986 RMK A01 T01950176  RH  088%=      5-min Rain = 0
KPD2 271302Z 17003KT 20/18 A2986 RMK A01 T01960175  RH  088%=      5-min Rain = 0
KPD2 271303Z 15002KT 20/18 A2986 RMK A01 T01960175  RH  087%=      5-min Rain = 0
KPD2 271304Z 11001KT 20/18 A2986 RMK A01 T01970175  RH  087%=      5-min Rain = 0
KPD2 271305Z 09000KT 20/18 A2986 RMK A01 T01980176  RH  087%=      5-min Rain = 0
KPD2 271306Z 07003KT 20/18 A2986 RMK A01 T01990176  RH  087%=      5-min Rain = 0
KPD2 271307Z 08004KT 20/18 A2986 RMK A01 T01990177  RH  087%=      5-min Rain = 0
KPD2 271308Z 11002KT 20/18 A2986 RMK A01 T01990176  RH  087%=      5-min Rain = 0
KPD2 271309Z 10004KT 20/18 A2986 RMK A01 T01990175  RH  086%=      5-min Rain = 0
KPD2 271310Z 13004KT 20/18 A2986 RMK A01 T01990176  RH  086%=      5-min Rain = 0
KPD2 271311Z 17002KT 20/18 A2986 RMK A01 T02000175  RH  086%=      5-min Rain = 0
KPD2 271312Z 10002KT 20/18 A2986 RMK A01 T02000175  RH  086%=      5-min Rain = 0
KPD2 271313Z 11002KT 20/18 A2986 RMK A01 T02000176  RH  086%=      5-min Rain = 0
KPD2 271314Z 11003KT 20/18 A2986 RMK A01 T02000176  RH  086%=      5-min Rain = 0
KPD2 271315Z 11004KT 20/18 A2986 RMK A01 T02000176  RH  086%=      5-min Rain = 0
KPD2 271316Z 12004KT 20/18 A2987 RMK A01 T02010177  RH  086%=      5-min Rain = 0
KPD2 271317Z 13002KT 20/18 A2987 RMK A01 T02010178  RH  086%=      5-min Rain = 0
KPD2 271318Z 11002KT 20/18 A2986 RMK A01 T02020179  RH  087%=      5-min Rain = 0
KPD2 271319Z 09003KT 20/18 A2987 RMK A01 T02030179  RH  086%=      5-min Rain = 0
KPD2 271320Z 09002KT 20/18 A2986 RMK A01 T02030177  RH  085%=      5-min Rain = 0
KPD2 271321Z 09002KT 20/18 A2986 RMK A01 T02040177  RH  085%=      5-min Rain = 0
KPD2 271322Z 10003KT 20/18 A2986 RMK A01 T02040177  RH  084%=      5-min Rain = 0
KPD2 271323Z 06003KT 21/18 A2986 RMK A01 T02050177  RH  084%=      5-min Rain = 0
KPD2 271324Z 01003KT 21/18 A2986 RMK A01 T02050177  RH  084%=      5-min Rain = 0
KPD2 271325Z 07002KT 21/18 A2986 RMK A01 T02050179  RH  085%=      5-min Rain = 0
KPD2 271326Z 06001KT 20/18 A2986 RMK A01 T02040178  RH  085%=      5-min Rain = 0
KPD2 271327Z 15002KT 20/18 A2986 RMK A01 T02040177  RH  085%=      5-min Rain = 0
KPD2 271328Z 20002KT 20/18 A2986 RMK A01 T02040177  RH  085%=      5-min Rain = 0
KPD2 271329Z 26003KT 20/18 A2986 RMK A01 T02040178  RH  085%=      5-min Rain = 0
KPD2 271330Z 15005KT 20/18 A2986 RMK A01 T02040178  RH  085%=      5-min Rain = 0
KPD2 271331Z 17007G12KT 20/18 A2986 RMK A01 T02030178  RH  086%=      5-min Rain = 0
KPD2 271332Z 23002KT 20/18 A2986 RMK A01 T02030177  RH  085%=      5-min Rain = 0
KPD2 271333Z 18006KT 20/18 A2986 RMK A01 T02030177  RH  085%=      5-min Rain = 0
KPD2 271334Z 15002KT 20/18 A2986 RMK A01 T02030177  RH  085%=      5-min Rain = 0
KPD2 271335Z 08003KT 20/18 A2986 RMK A01 T02040178  RH  085%=      5-min Rain = 0
KPD2 271336Z 08004KT 20/18 A2986 RMK A01 T02040178  RH  085%=      5-min Rain = 0
KPD2 271337Z 12005KT 20/18 A2987 RMK A01 T02040178  RH  085%=      5-min Rain = 0
KPD2 271338Z 24004KT 20/18 A2987 RMK A01 T02030178  RH  086%=      5-min Rain = 0
KPD2 271339Z 16004KT 20/18 A2986 RMK A01 T02030178  RH  086%=      5-min Rain = 0
KPD2 271340Z 17004KT 20/18 A2986 RMK A01 T02040178  RH  085%=      5-min Rain = 0
KPD2 271341Z 16004KT 20/18 A2987 RMK A01 T02040178  RH  085%=      5-min Rain = 0
KPD2 271342Z 17004KT 21/18 A2986 RMK A01 T02050178  RH  085%=      5-min Rain = 0
KPD2 271343Z 17004KT 21/18 A2986 RMK A01 T02050179  RH  085%=      5-min Rain = 0
KPD2 271344Z 16005KT 21/18 A2986 RMK A01 T02060179  RH  085%=      5-min Rain = 0
KPD2 271345Z 17003KT 21/18 A2986 RMK A01 T02060179  RH  085%=      5-min Rain = 0
KPD2 271346Z 19008G13KT 21/18 A2986 RMK A01 T02060179  RH  085%=      5-min Rain = 0
KPD2 271347Z 18005G11KT 21/18 A2986 RMK A01 T02070179  RH  084%=      5-min Rain = 0
KPD2 271348Z 18009G14KT 21/18 A2986 RMK A01 T02080180  RH  084%=      5-min Rain = 0
KPD2 271349Z 19011KT 21/18 A2986 RMK A01 T02090180  RH  084%=      5-min Rain = 0
KPD2 271350Z 16007KT 21/18 A2986 RMK A01 T02090180  RH  084%=      5-min Rain = 0
KPD2 271351Z 19005G11KT 21/18 A2986 RMK A01 T02100181  RH  084%=      5-min Rain = 0
KPD2 271352Z 21004G9KT 21/18 A2986 RMK A01 T02100180  RH  083%=      5-min Rain = 0
KPD2 271353Z 21004KT 21/18 A2986 RMK A01 T02110182  RH  083%=      5-min Rain = 0
KPD2 271354Z 20006KT 21/18 A2986 RMK A01 T02110182  RH  083%=      5-min Rain = 0
KPD2 271355Z 24006KT 21/18 A2986 RMK A01 T02120182  RH  083%=      5-min Rain = 0
KPD2 271356Z 30002KT 21/18 A2986 RMK A01 T02120181  RH  082%=      5-min Rain = 0
KPD2 271357Z 19001KT 21/18 A2986 RMK A01 T02130183  RH  083%=      5-min Rain = 0
KPD2 271358Z 22004KT 21/18 A2986 RMK A01 T02130183  RH  083%=      5-min Rain = 0
KPD2 271359Z 26004KT 21/18 A2986 RMK A01 T02130184  RH  084%=      5-min Rain = 0
KPD2 271400Z 25000KT 21/18 A2986 RMK A01 T02130183  RH  083%=      5-min Rain = 0
KPD2 271401Z 08000KT 21/18 A2986 RMK A01 T02130183  RH  083%=      5-min Rain = 0
KPD2 271402Z 08002KT 21/18 A2986 RMK A01 T02130183  RH  083%=      5-min Rain = 0
KPD2 271403Z 08001KT 21/18 A2986 RMK A01 T02130182  RH  082%=      5-min Rain = 0
KPD2 271404Z 20001KT 21/18 A2986 RMK A01 T02140184  RH  083%=      5-min Rain = 0
KPD2 271405Z 21001KT 21/18 A2986 RMK A01 T02140183  RH  083%=      5-min Rain = 0
KPD2 271406Z 31001KT 21/18 A2986 RMK A01 T02140184  RH  083%=      5-min Rain = 0
KPD2 271407Z 32003KT 22/19 A2986 RMK A01 T02150188  RH  085%=      5-min Rain = 0
KPD2 271408Z 16001KT 22/19 A2986 RMK A01 T02160185  RH  083%=      5-min Rain = 0
KPD2 271409Z 06001KT 22/18 A2986 RMK A01 T02160182  RH  081%=      5-min Rain = 0
KPD2 271410Z 15002KT 22/18 A2986 RMK A01 T02160183  RH  081%=      5-min Rain = 0
KPD2 271411Z 17004KT 22/18 A2986 RMK A01 T02160183  RH  081%=      5-min Rain = 0
KPD2 271412Z 16003KT 22/18 A2986 RMK A01 T02170182  RH  081%=      5-min Rain = 0
KPD2 271413Z 24005KT 22/18 A2986 RMK A01 T02180183  RH  081%=      5-min Rain = 0
KPD2 271414Z 23002KT 22/19 A2986 RMK A01 T02190185  RH  081%=      5-min Rain = 0
KPD2 271415Z 10001KT 22/18 A2986 RMK A01 T02190181  RH  079%=      5-min Rain = 0
KPD2 271416Z 08002KT 22/18 A2985 RMK A01 T02200182  RH  079%=      5-min Rain = 0
KPD2 271417Z 10003KT 22/19 A2985 RMK A01 T02220188  RH  081%=      5-min Rain = 0
KPD2 271418Z 12003KT 22/19 A2985 RMK A01 T02240187  RH  080%=      5-min Rain = 0
KPD2 271419Z 14004KT 23/19 A2986 RMK A01 T02250186  RH  078%=      5-min Rain = 0
KPD2 271420Z 17002KT 23/18 A2986 RMK A01 T02250183  RH  077%=      5-min Rain = 0
KPD2 271421Z 15005KT 23/19 A2986 RMK A01 T02250186  RH  078%=      5-min Rain = 0
KPD2 271422Z 20003G8KT 23/18 A2986 RMK A01 T02250184  RH  078%=      5-min Rain = 0
KPD2 271423Z 17004KT 23/18 A2986 RMK A01 T02250184  RH  077%=      5-min Rain = 0
KPD2 271424Z 17004KT 23/18 A2986 RMK A01 T02250184  RH  077%=      5-min Rain = 0
KPD2 271425Z 15005KT 23/18 A2986 RMK A01 T02260184  RH  077%=      5-min Rain = 0
KPD2 271426Z 16004KT 23/18 A2986 RMK A01 T02260183  RH  077%=      5-min Rain = 0
KPD2 271427Z 16005KT 23/18 A2986 RMK A01 T02260184  RH  077%=      5-min Rain = 0
KPD2 271428Z 15003KT 23/18 A2986 RMK A01 T02260184  RH  077%=      5-min Rain = 0
KPD2 271429Z 14002KT 23/19 A2986 RMK A01 T02270185  RH  077%=      5-min Rain = 0
KPD2 271430Z 12001KT 23/19 A2985 RMK A01 T02280185  RH  077%=      5-min Rain = 0
KPD2 271431Z 13003KT 23/19 A2985 RMK A01 T02300188  RH  077%=      5-min Rain = 0
KPD2 271432Z 12002KT 23/19 A2985 RMK A01 T02300186  RH  076%=      5-min Rain = 0
KPD2 271433Z 11003KT 23/19 A2986 RMK A01 T02310188  RH  076%=      5-min Rain = 0
KPD2 271434Z 13002KT 23/19 A2986 RMK A01 T02320187  RH  076%=      5-min Rain = 0
KPD2 271435Z 12001KT 23/19 A2985 RMK A01 T02330185  RH  075%=      5-min Rain = 0
KPD2 271436Z 15001KT 23/19 A2985 RMK A01 T02320185  RH  074%=      5-min Rain = 0
KPD2 271437Z 17001KT 23/18 A2985 RMK A01 T02320183  RH  074%=      5-min Rain = 0
KPD2 271438Z 12000KT 23/18 A2985 RMK A01 T02320183  RH  074%=      5-min Rain = 0
KPD2 271439Z 14003KT 23/18 A2985 RMK A01 T02320183  RH  074%=      5-min Rain = 0
KPD2 271440Z 17004KT 23/19 A2985 RMK A01 T02320185  RH  075%=      5-min Rain = 0
KPD2 271441Z 18003KT 23/18 A2985 RMK A01 T02320184  RH  074%=      5-min Rain = 0
KPD2 271442Z 20002KT 23/18 A2985 RMK A01 T02310182  RH  074%=      5-min Rain = 0
KPD2 271443Z 22003KT 23/18 A2985 RMK A01 T02310182  RH  074%=      5-min Rain = 0
KPD2 271444Z 22002KT 23/18 A2985 RMK A01 T02310184  RH  075%=      5-min Rain = 0
KPD2 271445Z 22002KT 23/19 A2985 RMK A01 T02320188  RH  076%=      5-min Rain = 0
KPD2 271446Z 21001KT 23/19 A2985 RMK A01 T02330185  RH  074%=      5-min Rain = 0
KPD2 271447Z 35001KT 24/19 A2985 RMK A01 T02350191  RH  076%=      5-min Rain = 0
KPD2 271448Z 00000KT 24/19 A2985 RMK A01 T02370189  RH  074%=      5-min Rain = 0
KPD2 271449Z 01000KT 24/19 A2985 RMK A01 T02390188  RH  073%=      5-min Rain = 0
KPD2 271450Z 03000KT 24/19 A2985 RMK A01 T02400186  RH  072%=      5-min Rain = 0
KPD2 271451Z 24001KT 24/19 A2985 RMK A01 T02390190  RH  074%=      5-min Rain = 0
KPD2 271452Z 21002KT 24/19 A2985 RMK A01 T02400188  RH  072%=      5-min Rain = 0
KPD2 271453Z 20001KT 24/19 A2985 RMK A01 T02400187  RH  072%=      5-min Rain = 0
KPD2 271454Z 17002KT 24/19 A2985 RMK A01 T02390189  RH  073%=      5-min Rain = 0
KPD2 271455Z 17001KT 24/19 A2985 RMK A01 T02410189  RH  073%=      5-min Rain = 0
KPD2 271456Z 20004KT 24/19 A2985 RMK A01 T02420187  RH  071%=      5-min Rain = 0
KPD2 271457Z 21002KT 24/18 A2985 RMK A01 T02410183  RH  070%=      5-min Rain = 0
KPD2 271458Z 23002KT 24/18 A2985 RMK A01 T02400180  RH  069%=      5-min Rain = 0
KPD2 271459Z 22002KT 24/19 A2985 RMK A01 T02410185  RH  071%=      5-min Rain = 0
KPD2 271500Z 20002KT 24/18 A2985 RMK A01 T02410183  RH  070%=      5-min Rain = 0
KPD2 271501Z 16000KT 24/19 A2985 RMK A01 T02410186  RH  071%=      5-min Rain = 0
KPD2 271502Z 28002KT 24/19 A2985 RMK A01 T02430188  RH  071%=      5-min Rain = 0
KPD2 271503Z 30002KT 24/19 A2985 RMK A01 T02440187  RH  071%=      5-min Rain = 0
KPD2 271504Z 22001KT 25/19 A2985 RMK A01 T02450188  RH  071%=      5-min Rain = 0
KPD2 271505Z 29004KT 25/19 A2985 RMK A01 T02460186  RH  069%=      5-min Rain = 0
KPD2 271506Z 30002KT 25/19 A2985 RMK A01 T02460185  RH  069%=      5-min Rain = 0
KPD2 271507Z 17003KT 25/19 A2985 RMK A01 T02460190  RH  071%=      5-min Rain = 0
KPD2 271508Z 17004KT 25/19 A2985 RMK A01 T02470190  RH  070%=      5-min Rain = 0
KPD2 271509Z 18003KT 25/19 A2985 RMK A01 T02480186  RH  068%=      5-min Rain = 0
KPD2 271510Z 17001KT 25/18 A2985 RMK A01 T02480181  RH  066%=      5-min Rain = 0
KPD2 271511Z 20000KT 25/18 A2985 RMK A01 T02470182  RH  067%=      5-min Rain = 0
KPD2 271512Z 09000KT 25/19 A2985 RMK A01 T02480186  RH  068%=      5-min Rain = 0
KPD2 271513Z 24001KT 25/19 A2985 RMK A01 T02500187  RH  068%=      5-min Rain = 0
KPD2 271514Z 16002KT 25/19 A2985 RMK A01 T02500185  RH  067%=      5-min Rain = 0
KPD2 271515Z 14003KT 25/19 A2985 RMK A01 T02510187  RH  068%=      5-min Rain = 0
KPD2 271516Z 16006KT 25/19 A2985 RMK A01 T02520189  RH  068%=      5-min Rain = 0
KPD2 271517Z 16004KT 25/19 A2985 RMK A01 T02510185  RH  067%=      5-min Rain = 0
KPD2 271518Z 17004KT 25/18 A2985 RMK A01 T02500184  RH  067%=      5-min Rain = 0
KPD2 271519Z 19004KT 25/18 A2985 RMK A01 T02490183  RH  067%=      5-min Rain = 0
KPD2 271520Z 20003KT 25/18 A2985 RMK A01 T02490184  RH  067%=      5-min Rain = 0
KPD2 271521Z 22001KT 25/18 A2985 RMK A01 T02470182  RH  067%=      5-min Rain = 0
KPD2 271522Z 22001KT 25/18 A2985 RMK A01 T02470183  RH  067%=      5-min Rain = 0
KPD2 271523Z 14000KT 25/19 A2985 RMK A01 T02470187  RH  069%=      5-min Rain = 0
KPD2 271524Z 15001KT 25/19 A2985 RMK A01 T02500192  RH  070%=      5-min Rain = 0
KPD2 271525Z 14002KT 25/19 A2985 RMK A01 T02520188  RH  068%=      5-min Rain = 0
KPD2 271526Z 18002KT 25/19 A2985 RMK A01 T02530186  RH  066%=      5-min Rain = 0
KPD2 271527Z 15001KT 25/18 A2985 RMK A01 T02530182  RH  065%=      5-min Rain = 0
KPD2 271528Z 15001KT 25/19 A2985 RMK A01 T02530186  RH  066%=      5-min Rain = 0
KPD2 271529Z 11002KT 26/19 A2985 RMK A01 T02550188  RH  067%=      5-min Rain = 0
KPD2 271530Z 15004KT 26/19 A2985 RMK A01 T02560190  RH  067%=      5-min Rain = 0
KPD2 271531Z 14003KT 26/19 A2985 RMK A01 T02570186  RH  065%=      5-min Rain = 0
KPD2 271532Z 12002KT 26/19 A2985 RMK A01 T02560190  RH  067%=      5-min Rain = 0
KPD2 271533Z 16002KT 26/19 A2985 RMK A01 T02570189  RH  066%=      5-min Rain = 0
KPD2 271534Z 18003KT 26/18 A2985 RMK A01 T02580184  RH  064%=      5-min Rain = 0
KPD2 271535Z 15001KT 26/18 A2985 RMK A01 T02550183  RH  064%=      5-min Rain = 0
KPD2 271536Z 13000KT 25/18 A2985 RMK A01 T02530183  RH  065%=      5-min Rain = 0
KPD2 271537Z 00000KT 25/18 A2985 RMK A01 T02530182  RH  065%=      5-min Rain = 0
KPD2 271538Z 00000KT 25/18 A2985 RMK A01 T02530182  RH  065%=      5-min Rain = 0
KPD2 271539Z 17003KT 26/19 A2985 RMK A01 T02550186  RH  066%=      5-min Rain = 0
KPD2 271540Z 15005KT 26/18 A2985 RMK A01 T02560182  RH  064%=      5-min Rain = 0
KPD2 271541Z 16006KT 26/18 A2985 RMK A01 T02550184  RH  065%=      5-min Rain = 0
KPD2 271542Z 16006KT 26/18 A2985 RMK A01 T02560184  RH  065%=      5-min Rain = 0
KPD2 271543Z 17003KT 26/18 A2985 RMK A01 T02560182  RH  064%=      5-min Rain = 0
KPD2 271544Z 20003KT 26/18 A2985 RMK A01 T02550184  RH  065%=      5-min Rain = 0
KPD2 271545Z 15004KT 26/19 A2985 RMK A01 T02560188  RH  066%=      5-min Rain = 0
KPD2 271546Z 14006KT 26/19 A2985 RMK A01 T02580190  RH  066%=      5-min Rain = 0
KPD2 271547Z 15006KT 26/19 A2985 RMK A01 T02590189  RH  065%=      5-min Rain = 0
KPD2 271548Z 15004KT 26/19 A2985 RMK A01 T02580186  RH  065%=      5-min Rain = 0
KPD2 271549Z 14002KT 26/19 A2985 RMK A01 T02560186  RH  065%=      5-min Rain = 0
KPD2 271550Z 17002KT 26/19 A2985 RMK A01 T02550188  RH  066%=      5-min Rain = 0
KPD2 271551Z 17002KT 26/19 A2985 RMK A01 T02560185  RH  065%=      5-min Rain = 0
KPD2 271552Z 18002KT 26/18 A2985 RMK A01 T02560183  RH  064%=      5-min Rain = 0
KPD2 271553Z 18002KT 26/19 A2985 RMK A01 T02560187  RH  065%=      5-min Rain = 0
KPD2 271554Z 15005KT 26/19 A2985 RMK A01 T02570189  RH  066%=      5-min Rain = 0
KPD2 271555Z 13003KT 26/19 A2985 RMK A01 T02580188  RH  065%=      5-min Rain = 0
KPD2 271556Z 16005KT 26/19 A2985 RMK A01 T02590188  RH  065%=      5-min Rain = 0
KPD2 271557Z 14003KT 26/19 A2985 RMK A01 T02590188  RH  065%=      5-min Rain = 0
KPD2 271558Z 14002KT 26/19 A2985 RMK A01 T02590188  RH  065%=      5-min Rain = 0
KPD2 271559Z 15003KT 26/19 A2984 RMK A01 T02600186  RH  064%=      5-min Rain = 0
KPD2 271600Z 15003KT 26/19 A2984 RMK A01 T02600186  RH  064%=      5-min Rain = 0
KPD2 271601Z 17005KT 26/19 A2984 RMK A01 T02610186  RH  063%=      5-min Rain = 0
KPD2 271602Z 16006KT 26/19 A2984 RMK A01 T02610186  RH  063%=      5-min Rain = 0
KPD2 271603Z 16003KT 26/19 A2984 RMK A01 T02610185  RH  063%=      5-min Rain = 0
KPD2 271604Z 15001KT 26/18 A2984 RMK A01 T02600184  RH  063%=      5-min Rain = 0
KPD2 271605Z 15002KT 26/18 A2984 RMK A01 T02600184  RH  063%=      5-min Rain = 0
KPD2 271606Z 15004KT 26/19 A2984 RMK A01 T02610187  RH  064%=      5-min Rain = 0
KPD2 271607Z 17005KT 26/19 A2984 RMK A01 T02630190  RH  064%=      5-min Rain = 0
KPD2 271608Z 16006KT 27/18 A2984 RMK A01 T02650184  RH  061%=      5-min Rain = 0
KPD2 271609Z 18005KT 27/18 A2984 RMK A01 T02660181  RH  060%=      5-min Rain = 0
KPD2 271610Z 17003KT 27/18 A2984 RMK A01 T02660176  RH  058%=      5-min Rain = 0
KPD2 271611Z 17006KT 27/18 A2984 RMK A01 T02650176  RH  058%=      5-min Rain = 0
KPD2 271612Z 19004KT 26/17 A2984 RMK A01 T02640174  RH  058%=      5-min Rain = 0
KPD2 271613Z 18005KT 26/18 A2984 RMK A01 T02630180  RH  060%=      5-min Rain = 0
KPD2 271614Z 20005KT 27/17 A2984 RMK A01 T02650173  RH  057%=      5-min Rain = 0
KPD2 271615Z 18003KT 26/17 A2984 RMK A01 T02640171  RH  057%=      5-min Rain = 0
KPD2 271616Z 21004KT 26/17 A2984 RMK A01 T02640171  RH  057%=      5-min Rain = 0
KPD2 271617Z 27003KT 26/18 A2984 RMK A01 T02640177  RH  059%=      5-min Rain = 0
KPD2 271618Z 22002KT 27/17 A2984 RMK A01 T02660173  RH  057%=      5-min Rain = 0
KPD2 271619Z 19005KT 27/17 A2984 RMK A01 T02670174  RH  057%=      5-min Rain = 0
KPD2 271620Z 19004KT 27/17 A2984 RMK A01 T02680171  RH  055%=      5-min Rain = 0
KPD2 271621Z 17005KT 27/17 A2984 RMK A01 T02680168  RH  054%=      5-min Rain = 0
KPD2 271622Z 19005KT 27/17 A2984 RMK A01 T02680171  RH  055%=      5-min Rain = 0
KPD2 271623Z 18004KT 27/18 A2984 RMK A01 T02680175  RH  057%=      5-min Rain = 0
KPD2 271624Z 20006KT 27/17 A2984 RMK A01 T02690171  RH  055%=      5-min Rain = 0
KPD2 271625Z 19006KT 27/17 A2984 RMK A01 T02700168  RH  054%=      5-min Rain = 0
KPD2 271631Z 17005KT 27/17 A2983 RMK A01 T02720168  RH  053%=      5-min Rain = 0
KPD2 271632Z 18005KT 27/17 A2983 RMK A01 T02720173  RH  055%=      5-min Rain = 0
KPD2 271633Z 18006KT 27/17 A2983 RMK A01 T02720174  RH  055%=      5-min Rain = 0
KPD2 271634Z 17006KT 27/17 A2983 RMK A01 T02730170  RH  053%=      5-min Rain = 0
KPD2 271635Z 17003KT 27/16 A2983 RMK A01 T02740160  RH  050%=      5-min Rain = 0
KPD2 271636Z 18004KT 27/16 A2983 RMK A01 T02740161  RH  050%=      5-min Rain = 0
KPD2 271637Z 18006KT 27/16 A2983 RMK A01 T02730164  RH  051%=      5-min Rain = 0
KPD2 271638Z 18006KT 27/16 A2983 RMK A01 T02730161  RH  050%=      5-min Rain = 0
KPD2 271639Z 16004KT 27/17 A2983 RMK A01 T02720165  RH  052%=      5-min Rain = 0
KPD2 271640Z 17002KT 27/15 A2983 RMK A01 T02730154  RH  048%=      5-min Rain = 0
KPD2 271641Z 22003KT 27/17 A2983 RMK A01 T02740165  RH  051%=      5-min Rain = 0
KPD2 271642Z 15001KT 28/16 A2983 RMK A01 T02760158  RH  049%=      5-min Rain = 0
KPD2 271643Z 14003KT 28/16 A2983 RMK A01 T02770163  RH  050%=      5-min Rain = 0
KPD2 271644Z 11003KT 28/17 A2983 RMK A01 T02790174  RH  053%=      5-min Rain = 0
KPD2 271645Z 12003KT 28/17 A2983 RMK A01 T02810170  RH  051%=      5-min Rain = 0
KPD2 271646Z 13003KT 28/17 A2983 RMK A01 T02820174  RH  052%=      5-min Rain = 0
KPD2 271647Z 21002KT 28/17 A2983 RMK A01 T02830169  RH  050%=      5-min Rain = 0
KPD2 271648Z 19002KT 28/16 A2983 RMK A01 T02810164  RH  049%=      5-min Rain = 0
KPD2 271649Z 22003KT 28/17 A2983 RMK A01 T02800172  RH  052%=      5-min Rain = 0
KPD2 271650Z 22003KT 28/16 A2983 RMK A01 T02800159  RH  048%=      5-min Rain = 0
KPD2 271651Z 23003KT 28/16 A2983 RMK A01 T02800163  RH  049%=      5-min Rain = 0
KPD2 271652Z 22003KT 28/17 A2983 RMK A01 T02810169  RH  051%=      5-min Rain = 0
KPD2 271653Z 19003KT 28/17 A2983 RMK A01 T02810165  RH  049%=      5-min Rain = 0
KPD2 271654Z 15006KT 28/17 A2983 RMK A01 T02820169  RH  050%=      5-min Rain = 0
KPD2 271655Z 14006KT 28/16 A2983 RMK A01 T02820163  RH  048%=      5-min Rain = 0
KPD2 271656Z 13004KT 28/17 A2983 RMK A01 T02830171  RH  051%=      5-min Rain = 0
KPD2 271657Z 16002KT 28/17 A2983 RMK A01 T02840166  RH  049%=      5-min Rain = 0
KPD2 271658Z 19004KT 29/17 A2983 RMK A01 T02860169  RH  049%=      5-min Rain = 0
KPD2 271659Z 21004KT 29/16 A2983 RMK A01 T02870162  RH  047%=      5-min Rain = 0
KPD2 271700Z 20002KT 29/16 A2983 RMK A01 T02860159  RH  046%=      5-min Rain = 0
KPD2 271701Z 18004KT 29/16 A2983 RMK A01 T02870160  RH  046%=      5-min Rain = 0
KPD2 271702Z 19004KT 29/16 A2983 RMK A01 T02870162  RH  047%=      5-min Rain = 0
KPD2 271703Z 16005KT 29/16 A2982 RMK A01 T02870158  RH  046%=      5-min Rain = 0
KPD2 271704Z 18004KT 29/16 A2982 RMK A01 T02880160  RH  046%=      5-min Rain = 0
KPD2 271705Z 17006KT 29/14 A2982 RMK A01 T02890144  RH  041%=      5-min Rain = 0
KPD2 271706Z 19006KT 29/14 A2982 RMK A01 T02890137  RH  039%=      5-min Rain = 0
KPD2 271707Z 24005KT 29/15 A2982 RMK A01 T02870151  RH  043%=      5-min Rain = 0
KPD2 271708Z 24003KT 29/15 A2982 RMK A01 T02870150  RH  043%=      5-min Rain = 0
KPD2 271709Z 20006KT 29/15 A2982 RMK A01 T02870148  RH  043%=      5-min Rain = 0
KPD2 271710Z 20004KT 29/15 A2982 RMK A01 T02870146  RH  042%=      5-min Rain = 0
KPD2 271711Z 18003KT 29/14 A2982 RMK A01 T02870141  RH  041%=      5-min Rain = 0
KPD2 271712Z 17003KT 29/13 A2982 RMK A01 T02880127  RH  037%=      5-min Rain = 0
KPD2 271713Z 14002KT 29/12 A2982 RMK A01 T02880121  RH  036%=      5-min Rain = 0
KPD2 271714Z 12001KT 29/14 A2982 RMK A01 T02890135  RH  039%=      5-min Rain = 0
KPD2 271715Z 07000KT 29/14 A2982 RMK A01 T02900135  RH  039%=      5-min Rain = 0
KPD2 271716Z 09001KT 29/14 A2982 RMK A01 T02910143  RH  040%=      5-min Rain = 0
KPD2 271717Z 19002KT 29/14 A2982 RMK A01 T02920140  RH  040%=      5-min Rain = 0
KPD2 271718Z 18004KT 29/14 A2982 RMK A01 T02910140  RH  040%=      5-min Rain = 0
KPD2 271719Z 17007KT 29/13 A2982 RMK A01 T02900130  RH  037%=      5-min Rain = 0
KPD2 271720Z 18005KT 29/13 A2982 RMK A01 T02900131  RH  038%=      5-min Rain = 0
KPD2 271721Z 23004KT 29/14 A2982 RMK A01 T02910136  RH  039%=      5-min Rain = 0
KPD2 271722Z 26004KT 29/14 A2982 RMK A01 T02930141  RH  039%=      5-min Rain = 0
KPD2 271723Z 26005KT 30/14 A2982 RMK A01 T02950139  RH  038%=      5-min Rain = 0
KPD2 271724Z 25004KT 30/12 A2982 RMK A01 T02960117  RH  033%=      5-min Rain = 0
KPD2 271725Z 27003KT 30/12 A2982 RMK A01 T02960118  RH  033%=      5-min Rain = 0
KPD2 271726Z 26003KT 30/13 A2982 RMK A01 T02960133  RH  037%=      5-min Rain = 0
KPD2 271727Z 28001KT 30/13 A2982 RMK A01 T02960127  RH  035%=      5-min Rain = 0
KPD2 271728Z 25002KT 30/13 A2982 RMK A01 T02960128  RH  036%=      5-min Rain = 0
KPD2 271729Z 26003KT 30/13 A2982 RMK A01 T02970130  RH  036%=      5-min Rain = 0
KPD2 271730Z 21002KT 30/14 A2982 RMK A01 T02980138  RH  037%=      5-min Rain = 0
KPD2 271731Z 26005KT 30/13 A2982 RMK A01 T02990129  RH  035%=      5-min Rain = 0
KPD2 271732Z 25005KT 30/13 A2982 RMK A01 T02980127  RH  035%=      5-min Rain = 0
KPD2 271733Z 22004KT 30/13 A2982 RMK A01 T02980125  RH  035%=      5-min Rain = 0
KPD2 271734Z 23003KT 30/12 A2982 RMK A01 T02990118  RH  033%=      5-min Rain = 0
KPD2 271735Z 26003KT 30/13 A2982 RMK A01 T02990125  RH  034%=      5-min Rain = 0
KPD2 271736Z 26002KT 30/14 A2982 RMK A01 T03000138  RH  037%=      5-min Rain = 0
KPD2 271737Z 26003KT 30/14 A2982 RMK A01 T03020135  RH  036%=      5-min Rain = 0
KPD2 271738Z 29004KT 30/13 A2982 RMK A01 T03020129  RH  035%=      5-min Rain = 0
KPD2 271739Z 28003KT 30/14 A2982 RMK A01 T03020136  RH  036%=      5-min Rain = 0
KPD2 271740Z 29002KT 30/12 A2982 RMK A01 T03030121  RH  033%=      5-min Rain = 0
KPD2 271741Z 31003KT 30/14 A2982 RMK A01 T03040137  RH  036%=      5-min Rain = 0
KPD2 271742Z 24004KT 30/14 A2982 RMK A01 T03040136  RH  036%=      5-min Rain = 0
KPD2 271743Z 24002KT 31/14 A2982 RMK A01 T03050135  RH  035%=      5-min Rain = 0
KPD2 271744Z 20004KT 31/14 A2982 RMK A01 T03060138  RH  036%=      5-min Rain = 0
KPD2 271745Z 21005KT 31/12 A2982 RMK A01 T03060122  RH  032%=      5-min Rain = 0
KPD2 271746Z 17005KT 31/11 A2982 RMK A01 T03060113  RH  030%=      5-min Rain = 0
KPD2 271747Z 19005KT 31/12 A2982 RMK A01 T03050119  RH  032%=      5-min Rain = 0
KPD2 271748Z 15003KT 31/11 A2982 RMK A01 T03050114  RH  031%=      5-min Rain = 0
KPD2 271749Z 16004KT 31/11 A2982 RMK A01 T03050107  RH  029%=      5-min Rain = 0
KPD2 271750Z 20003KT 31/11 A2982 RMK A01 T03060105  RH  029%=      5-min Rain = 0
KPD2 271751Z 24005KT 31/12 A2982 RMK A01 T03060115  RH  031%=      5-min Rain = 0
KPD2 271752Z 25003KT 31/11 A2982 RMK A01 T03050111  RH  030%=      5-min Rain = 0
KPD2 271753Z 32001KT 30/10 A2982 RMK A01 T03040099  RH  028%=      5-min Rain = 0
KPD2 271754Z 21003KT 30/11 A2981 RMK A01 T03040107  RH  030%=      5-min Rain = 0
KPD2 271755Z 22004KT 30/11 A2981 RMK A01 T03030111  RH  031%=      5-min Rain = 0
KPD2 271756Z 23001KT 30/11 A2981 RMK A01 T03030110  RH  030%=      5-min Rain = 0
KPD2 271757Z 15001KT 30/11 A2981 RMK A01 T03040108  RH  030%=      5-min Rain = 0
KPD2 271758Z 13002KT 31/11 A2981 RMK A01 T03050105  RH  029%=      5-min Rain = 0
KPD2 271759Z 20004KT 31/12 A2981 RMK A01 T03060117  RH  031%=      5-min Rain = 0
KPD2 271800Z 21007KT 31/11 A2981 RMK A01 T03080114  RH  030%=      5-min Rain = 0
KPD2 271801Z 20006KT 31/10 A2981 RMK A01 T03080101  RH  028%=      5-min Rain = 0
KPD2 271802Z 19004KT 31/10 A2981 RMK A01 T03060096  RH  027%=      5-min Rain = 0
KPD2 271803Z 22003KT 31/11 A2981 RMK A01 T03050113  RH  031%=      5-min Rain = 0
KPD2 271804Z 25006KT 31/11 A2981 RMK A01 T03060109  RH  030%=      5-min Rain = 0
KPD2 271805Z 26006KT 31/11 A2981 RMK A01 T03070105  RH  029%=      5-min Rain = 0
KPD2 271806Z 22006KT 31/10 A2981 RMK A01 T03080099  RH  027%=      5-min Rain = 0
KPD2 271807Z 19003KT 31/09 A2981 RMK A01 T03090087  RH  025%=      5-min Rain = 0
KPD2 271808Z 26004KT 31/10 A2981 RMK A01 T03070097  RH  027%=      5-min Rain = 0
KPD2 271809Z 29006KT 31/09 A2981 RMK A01 T03070094  RH  027%=      5-min Rain = 0
KPD2 271810Z 29005KT 31/10 A2981 RMK A01 T03070101  RH  028%=      5-min Rain = 0
KPD2 271811Z 25004KT 31/11 A2981 RMK A01 T03080110  RH  029%=      5-min Rain = 0
KPD2 271812Z 22003KT 31/11 A2981 RMK A01 T03090107  RH  029%=      5-min Rain = 0
KPD2 271813Z 17004G9KT 31/10 A2981 RMK A01 T03100097  RH  027%=      5-min Rain = 0
KPD2 271814Z 17006KT 31/08 A2981 RMK A01 T03100084  RH  024%=      5-min Rain = 0
KPD2 271815Z 19003KT 31/08 A2981 RMK A01 T03090084  RH  025%=      5-min Rain = 0
KPD2 271816Z 18006KT 31/10 A2981 RMK A01 T03070096  RH  027%=      5-min Rain = 0
KPD2 271817Z 21003KT 31/08 A2981 RMK A01 T03080082  RH  025%=      5-min Rain = 0
KPD2 271818Z 17006KT 31/08 A2981 RMK A01 T03080080  RH  024%=      5-min Rain = 0
KPD2 271819Z 20003KT 31/08 A2981 RMK A01 T03060084  RH  025%=      5-min Rain = 0
KPD2 271820Z 22003KT 31/10 A2981 RMK A01 T03060104  RH  029%=      5-min Rain = 0
KPD2 271821Z 29004KT 31/10 A2981 RMK A01 T03080096  RH  027%=      5-min Rain = 0
KPD2 271822Z 24008G13KT 31/10 A2981 RMK A01 T03100100  RH  027%=      5-min Rain = 0
KPD2 271823Z 23006KT 31/09 A2981 RMK A01 T03110086  RH  025%=      5-min Rain = 0
KPD2 271824Z 21006KT 31/08 A2981 RMK A01 T03110083  RH  024%=      5-min Rain = 0
KPD2 271825Z 26007KT 31/08 A298 RMK A01 T03120081  RH  024%=      5-min Rain = 0
KPD2 271826Z 26006KT 31/09 A298 RMK A01 T03110094  RH  026%=      5-min Rain = 0
KPD2 271827Z 26006KT 31/09 A298 RMK A01 T03120093  RH  026%=      5-min Rain = 0
KPD2 271828Z 28004G9KT 31/10 A298 RMK A01 T03120099  RH  027%=      5-min Rain = 0
KPD2 271829Z 25006G11KT 31/11 A298 RMK A01 T03140105  RH  028%=      5-min Rain = 0
KPD2 271830Z 19003KT 32/08 A2981 RMK A01 T03150081  RH  023%=      5-min Rain = 0
KPD2 271831Z 19004KT 31/09 A298 RMK A01 T03140087  RH  024%=      5-min Rain = 0
KPD2 271832Z 18008KT 31/09 A2981 RMK A01 T03130091  RH  025%=      5-min Rain = 0
KPD2 271833Z 21007KT 31/09 A2981 RMK A01 T03120092  RH  026%=      5-min Rain = 0
KPD2 271834Z 21006KT 31/10 A2981 RMK A01 T03120098  RH  027%=      5-min Rain = 0
KPD2 271835Z 18004KT 31/09 A298 RMK A01 T03110087  RH  025%=      5-min Rain = 0
KPD2 271836Z 20003KT 31/09 A298 RMK A01 T03100088  RH  025%=      5-min Rain = 0
KPD2 271837Z 17002KT 31/09 A298 RMK A01 T03090094  RH  026%=      5-min Rain = 0
KPD2 271838Z 17006KT 31/09 A298 RMK A01 T03090089  RH  025%=      5-min Rain = 0
KPD2 271839Z 17010KT 31/08 A298 RMK A01 T03090081  RH  024%=      5-min Rain = 0
KPD2 271840Z 16008KT 31/08 A298 RMK A01 T03090082  RH  024%=      5-min Rain = 0
KPD2 271841Z 19008KT 31/08 A298 RMK A01 T03090082  RH  024%=      5-min Rain = 0
KPD2 271842Z 19005KT 31/08 A298 RMK A01 T03090082  RH  024%=      5-min Rain = 0
KPD2 271843Z 16007KT 31/09 A298 RMK A01 T03090088  RH  025%=      5-min Rain = 0
KPD2 271844Z 17010G15KT 31/08 A298 RMK A01 T03110083  RH  024%=      5-min Rain = 0
KPD2 271845Z 18008KT 31/08 A298 RMK A01 T03120075  RH  023%=      5-min Rain = 0
KPD2 271846Z 18005KT 31/08 A298 RMK A01 T03110078  RH  023%=      5-min Rain = 0
KPD2 271847Z 19006KT 31/09 A298 RMK A01 T03110086  RH  025%=      5-min Rain = 0
KPD2 271848Z 19003KT 31/07 A298 RMK A01 T03120074  RH  023%=      5-min Rain = 0
KPD2 271849Z 20003KT 31/08 A298 RMK A01 T03120076  RH  023%=      5-min Rain = 0
KPD2 271850Z 19004KT 31/08 A2979 RMK A01 T03110081  RH  024%=      5-min Rain = 0
KPD2 271851Z 23003KT 31/09 A2979 RMK A01 T03130094  RH  026%=      5-min Rain = 0
KPD2 271852Z 20005KT 32/09 A2979 RMK A01 T03160092  RH  025%=      5-min Rain = 0
KPD2 271853Z 26006G11KT 32/09 A2979 RMK A01 T03180094  RH  025%=      5-min Rain = 0
KPD2 271854Z 26006KT 32/09 A2979 RMK A01 T03180093  RH  025%=      5-min Rain = 0
KPD2 271855Z 27003KT 32/10 A2979 RMK A01 T03180099  RH  026%=      5-min Rain = 0
KPD2 271856Z 17007KT 32/09 A2979 RMK A01 T03180092  RH  025%=      5-min Rain = 0
KPD2 271857Z 17009KT 32/09 A2979 RMK A01 T03170085  RH  024%=      5-min Rain = 0
KPD2 271858Z 19009KT 32/09 A2979 RMK A01 T03160089  RH  024%=      5-min Rain = 0
KPD2 271859Z 18003KT 32/09 A2979 RMK A01 T03150086  RH  024%=      5-min Rain = 0
KPD2 271900Z 22006G11KT 31/09 A2979 RMK A01 T03140089  RH  025%=      5-min Rain = 0
KPD2 271901Z 15006G11KT 31/08 A2979 RMK A01 T03130083  RH  024%=      5-min Rain = 0
KPD2 271902Z 16007KT 31/07 A2979 RMK A01 T03120074  RH  023%=      5-min Rain = 0
KPD2 271903Z 21008KT 31/07 A2979 RMK A01 T03120066  RH  021%=      5-min Rain = 0
KPD2 271904Z 22009KT 31/08 A2979 RMK A01 T03110078  RH  023%=      5-min Rain = 0
KPD2 271905Z 19007KT 31/08 A2979 RMK A01 T03110076  RH  023%=      5-min Rain = 0
KPD2 271906Z 19010G15KT 31/08 A2979 RMK A01 T03110082  RH  024%=      5-min Rain = 0
KPD2 271907Z 19006KT 31/08 A2979 RMK A01 T03120080  RH  024%=      5-min Rain = 0
KPD2 271908Z 19006KT 31/07 A2979 RMK A01 T03130073  RH  022%=      5-min Rain = 0
KPD2 271909Z 20008KT 31/07 A2979 RMK A01 T03120073  RH  022%=      5-min Rain = 0
KPD2 271910Z 25005KT 31/08 A2979 RMK A01 T03120080  RH  024%=      5-min Rain = 0
KPD2 271911Z 19002KT 31/09 A2979 RMK A01 T03130093  RH  026%=      5-min Rain = 0
KPD2 271912Z 29002KT 32/09 A2978 RMK A01 T03170090  RH  025%=      5-min Rain = 0
KPD2 271913Z 23004G9KT 32/09 A2978 RMK A01 T03190092  RH  025%=      5-min Rain = 0
KPD2 271914Z 24005KT 32/09 A2978 RMK A01 T03200091  RH  024%=      5-min Rain = 0
KPD2 271915Z 20005G10KT 32/10 A2978 RMK A01 T03200096  RH  025%=      5-min Rain = 0
KPD2 271916Z 19006KT 32/09 A2978 RMK A01 T03200089  RH  024%=      5-min Rain = 0
KPD2 271917Z 19006KT 32/10 A2978 RMK A01 T03180096  RH  025%=      5-min Rain = 0
KPD2 271918Z 16005KT 32/09 A2978 RMK A01 T03170092  RH  025%=      5-min Rain = 0
KPD2 271919Z 17003G8KT 32/10 A2978 RMK A01 T03170095  RH  025%=      5-min Rain = 0
KPD2 271920Z 26002KT 32/10 A2978 RMK A01 T03170102  RH  027%=      5-min Rain = 0
KPD2 271921Z 19010G15KT 32/10 A2978 RMK A01 T03180095  RH  025%=      5-min Rain = 0
KPD2 271922Z 18008KT 32/09 A2978 RMK A01 T03160090  RH  025%=      5-min Rain = 0
KPD2 271923Z 19005KT 31/09 A2978 RMK A01 T03140091  RH  025%=      5-min Rain = 0
KPD2 271924Z 18005KT 31/09 A2978 RMK A01 T03130090  RH  025%=      5-min Rain = 0
KPD2 271925Z 20007KT 31/10 A2978 RMK A01 T03120095  RH  026%=      5-min Rain = 0
KPD2 271926Z 19006KT 31/08 A2977 RMK A01 T03130083  RH  024%=      5-min Rain = 0
KPD2 271927Z 19005KT 31/09 A2977 RMK A01 T03130094  RH  026%=      5-min Rain = 0
KPD2 271928Z 17007KT 32/09 A2977 RMK A01 T03150092  RH  025%=      5-min Rain = 0
KPD2 271929Z 16009G15KT 32/09 A2977 RMK A01 T03170094  RH  025%=      5-min Rain = 0
KPD2 271930Z 14013G20KT 32/08 A2977 RMK A01 T03190084  RH  023%=      5-min Rain = 0
KPD2 271931Z 14013G19KT 32/07 A2977 RMK A01 T03190073  RH  022%=      5-min Rain = 0
KPD2 271932Z 14012G18KT 32/08 A2977 RMK A01 T03180077  RH  022%=      5-min Rain = 0
KPD2 271933Z 15010G15KT 32/08 A2977 RMK A01 T03180080  RH  023%=      5-min Rain = 0
KPD2 271934Z 16010KT 32/08 A2977 RMK A01 T03190084  RH  023%=      5-min Rain = 0
KPD2 271935Z 15010G17KT 32/08 A2977 RMK A01 T03190077  RH  022%=      5-min Rain = 0
KPD2 271936Z 17006KT 32/08 A2977 RMK A01 T03170082  RH  023%=      5-min Rain = 0
KPD2 271937Z 18005KT 32/09 A2977 RMK A01 T03160087  RH  024%=      5-min Rain = 0
KPD2 271938Z 21005KT 32/09 A2977 RMK A01 T03170089  RH  024%=      5-min Rain = 0
KPD2 271939Z 22005KT 32/09 A2977 RMK A01 T03190087  RH  024%=      5-min Rain = 0
KPD2 271940Z 25001KT 32/08 A2977 RMK A01 T03200077  RH  022%=      5-min Rain = 0
KPD2 271941Z 22006KT 32/08 A2977 RMK A01 T03200077  RH  022%=      5-min Rain = 0
KPD2 271942Z 21005KT 32/09 A2977 RMK A01 T03190086  RH  024%=      5-min Rain = 0
KPD2 271943Z 19003KT 32/08 A2977 RMK A01 T03190078  RH  022%=      5-min Rain = 0
KPD2 271944Z 25005KT 32/09 A2977 RMK A01 T03180089  RH  024%=      5-min Rain = 0
KPD2 271945Z 20004KT 32/08 A2977 RMK A01 T03180084  RH  023%=      5-min Rain = 0
KPD2 271946Z 16010KT 32/09 A2977 RMK A01 T03180087  RH  024%=      5-min Rain = 0
KPD2 271947Z 21008KT 32/09 A2977 RMK A01 T03180091  RH  025%=      5-min Rain = 0
KPD2 271948Z 24004KT 32/09 A2977 RMK A01 T03190093  RH  025%=      5-min Rain = 0
KPD2 271949Z 21008G17KT 32/10 A2976 RMK A01 T03210103  RH  026%=      5-min Rain = 0
KPD2 271950Z 20005G12KT 32/09 A2977 RMK A01 T03220087  RH  023%=      5-min Rain = 0
KPD2 271951Z 19005KT 32/08 A2976 RMK A01 T03200084  RH  023%=      5-min Rain = 0
KPD2 271952Z 19011KT 32/09 A2977 RMK A01 T03190085  RH  023%=      5-min Rain = 0
KPD2 271953Z 21010KT 32/08 A2977 RMK A01 T03190083  RH  023%=      5-min Rain = 0
KPD2 271954Z 21010KT 32/09 A2977 RMK A01 T03180089  RH  024%=      5-min Rain = 0
KPD2 271955Z 18007KT 32/08 A2977 RMK A01 T03180082  RH  023%=      5-min Rain = 0
KPD2 271956Z 18010KT 32/08 A2977 RMK A01 T03170083  RH  023%=      5-min Rain = 0
KPD2 271957Z 17010KT 32/08 A2976 RMK A01 T03170078  RH  023%=      5-min Rain = 0
KPD2 271958Z 18010G15KT 32/08 A2976 RMK A01 T03180079  RH  023%=      5-min Rain = 0
KPD2 271959Z 18011KT 32/08 A2976 RMK A01 T03170075  RH  022%=      5-min Rain = 0
KPD2 272000Z 19009G14KT 32/08 A2976 RMK A01 T03160075  RH  022%=      5-min Rain = 0
KPD2 272001Z 20008KT 32/07 A2976 RMK A01 T03160074  RH  022%=      5-min Rain = 0
KPD2 272002Z 22006G11KT 32/08 A2976 RMK A01 T03160076  RH  022%=      5-min Rain = 0
KPD2 272003Z 24007G13KT 32/08 A2976 RMK A01 T03160084  RH  024%=      5-min Rain = 0
KPD2 272004Z 26012G19KT 32/08 A2976 RMK A01 T03170080  RH  023%=      5-min Rain = 0
KPD2 272005Z 24010G20KT 32/08 A2976 RMK A01 T03170083  RH  024%=      5-min Rain = 0
KPD2 272006Z 25007G15KT 32/10 A2976 RMK A01 T03170095  RH  025%=      5-min Rain = 0
KPD2 272007Z 28006G11KT 32/09 A2976 RMK A01 T03190090  RH  024%=      5-min Rain = 0
KPD2 272008Z 26004KT 32/09 A2975 RMK A01 T03200094  RH  025%=      5-min Rain = 0
KPD2 272009Z 25011G19KT 32/09 A2975 RMK A01 T03220093  RH  024%=      5-min Rain = 0
KPD2 272010Z 23007G14KT 32/08 A2976 RMK A01 T03220081  RH  022%=      5-min Rain = 0
KPD2 272011Z 18007KT 32/08 A2975 RMK A01 T03200082  RH  023%=      5-min Rain = 0
KPD2 272012Z 18007KT 32/08 A2975 RMK A01 T03200082  RH  023%=      5-min Rain = 0
KPD2 272013Z 22007KT 32/09 A2976 RMK A01 T03210088  RH  024%=      5-min Rain = 0
KPD2 272014Z 23011KT 32/09 A2976 RMK A01 T03220089  RH  024%=      5-min Rain = 0
KPD2 272015Z 25006KT 32/08 A2975 RMK A01 T03230077  RH  022%=      5-min Rain = 0
KPD2 272016Z 22004KT 32/08 A2975 RMK A01 T03220082  RH  023%=      5-min Rain = 0
KPD2 272017Z 26004G13KT 32/09 A2975 RMK A01 T03230086  RH  023%=      5-min Rain = 0
KPD2 272018Z 22004KT 32/08 A2975 RMK A01 T03240084  RH  023%=      5-min Rain = 0
KPD2 272019Z 19002KT 32/09 A2975 RMK A01 T03240089  RH  023%=      5-min Rain = 0
KPD2 272020Z 26004G9KT 33/09 A2975 RMK A01 T03270092  RH  024%=      5-min Rain = 0
KPD2 272021Z 21004KT 33/09 A2975 RMK A01 T03290093  RH  023%=      5-min Rain = 0
KPD2 272022Z 24007KT 33/08 A2975 RMK A01 T03290080  RH  021%=      5-min Rain = 0
KPD2 272023Z 18010G15KT 33/08 A2975 RMK A01 T03280078  RH  021%=      5-min Rain = 0
KPD2 272024Z 17011KT 33/06 A2975 RMK A01 T03260063  RH  019%=      5-min Rain = 0
KPD2 272025Z 20009G14KT 32/06 A2975 RMK A01 T03230060  RH  019%=      5-min Rain = 0
KPD2 272026Z 17006KT 32/06 A2975 RMK A01 T03220064  RH  020%=      5-min Rain = 0
KPD2 272027Z 22008G14KT 32/07 A2975 RMK A01 T03220066  RH  020%=      5-min Rain = 0
KPD2 272028Z 25006KT 32/07 A2975 RMK A01 T03230070  RH  021%=      5-min Rain = 0
KPD2 272029Z 26007KT 32/07 A2974 RMK A01 T03240069  RH  020%=      5-min Rain = 0
KPD2 272030Z 25007KT 32/07 A2974 RMK A01 T03240071  RH  021%=      5-min Rain = 0
KPD2 272031Z 23005G10KT 33/07 A2974 RMK A01 T03250073  RH  021%=      5-min Rain = 0
KPD2 272032Z 22008G13KT 33/08 A2974 RMK A01 T03270078  RH  021%=      5-min Rain = 0
KPD2 272033Z 20007G12KT 33/07 A2974 RMK A01 T03270074  RH  021%=      5-min Rain = 0
KPD2 272034Z 18007G13KT 33/07 A2974 RMK A01 T03270068  RH  020%=      5-min Rain = 0
KPD2 272035Z 20009G14KT 33/07 A2974 RMK A01 T03260068  RH  020%=      5-min Rain = 0
KPD2 272036Z 19007G12KT 33/07 A2974 RMK A01 T03260068  RH  020%=      5-min Rain = 0
KPD2 272037Z 16008KT 33/07 A2974 RMK A01 T03250065  RH  020%=      5-min Rain = 0
KPD2 272038Z 13002KT 33/08 A2974 RMK A01 T03250075  RH  021%=      5-min Rain = 0
KPD2 272039Z 27004KT 33/09 A2973 RMK A01 T03290088  RH  023%=      5-min Rain = 0
KPD2 272040Z 19005KT 33/08 A2973 RMK A01 T03320076  RH  021%=      5-min Rain = 0
KPD2 272041Z 16015G20KT 33/06 A2974 RMK A01 T03320063  RH  019%=      5-min Rain = 0
KPD2 272042Z 18012G17KT 33/05 A2974 RMK A01 T03300049  RH  017%=      5-min Rain = 0
KPD2 272043Z 20008KT 33/05 A2974 RMK A01 T03280049  RH  017%=      5-min Rain = 0
KPD2 272044Z 20004G12KT 33/05 A2974 RMK A01 T03280051  RH  018%=      5-min Rain = 0
KPD2 272045Z 22008G13KT 33/05 A2974 RMK A01 T03280051  RH  018%=      5-min Rain = 0
KPD2 272046Z 18006KT 33/06 A2973 RMK A01 T03280056  RH  018%=      5-min Rain = 0
KPD2 272047Z 15006KT 33/05 A2973 RMK A01 T03290053  RH  018%=      5-min Rain = 0
KPD2 272048Z 17008G13KT 33/06 A2973 RMK A01 T03300058  RH  018%=      5-min Rain = 0
KPD2 272049Z 23006G14KT 33/07 A2973 RMK A01 T03320068  RH  019%=      5-min Rain = 0
KPD2 272050Z 20011G18KT 33/07 A2973 RMK A01 T03330065  RH  019%=      5-min Rain = 0
KPD2 272051Z 19012G17KT 33/05 A2973 RMK A01 T03330048  RH  017%=      5-min Rain = 0
KPD2 272052Z 18011G17KT 33/04 A2973 RMK A01 T03310041  RH  016%=      5-min Rain = 0
KPD2 272053Z 20009G14KT 33/04 A2973 RMK A01 T03290041  RH  016%=      5-min Rain = 0
KPD2 272054Z 20013KT 33/04 A2973 RMK A01 T03290039  RH  016%=      5-min Rain = 0
KPD2 272055Z 20010KT 33/04 A2973 RMK A01 T03280041  RH  016%=      5-min Rain = 0
KPD2 272056Z 22004KT 33/05 A2973 RMK A01 T03290048  RH  017%=      5-min Rain = 0
KPD2 272057Z 18008G13KT 33/05 A2973 RMK A01 T03310052  RH  017%=      5-min Rain = 0
KPD2 272058Z 17011G16KT 33/03 A2973 RMK A01 T03330034  RH  015%=      5-min Rain = 0
KPD2 272059Z 16016KT 33/03 A2973 RMK A01 T03320034  RH  015%=      5-min Rain = 0
KPD2 272100Z 17011G17KT 33/03 A2973 RMK A01 T03320030  RH  015%=      5-min Rain = 0
KPD2 272101Z 17014G20KT 33/03 A2973 RMK A01 T03320034  RH  015%=      5-min Rain = 0
KPD2 272102Z 19014G20KT 33/03 A2973 RMK A01 T03310025  RH  014%=      5-min Rain = 0
KPD2 272103Z 19011G16KT 33/03 A2973 RMK A01 T03300025  RH  015%=      5-min Rain = 0
KPD2 272104Z 19007KT 33/03 A2973 RMK A01 T03290029  RH  015%=      5-min Rain = 0
KPD2 272105Z 19011G17KT 33/03 A2973 RMK A01 T03300028  RH  015%=      5-min Rain = 0
KPD2 272106Z 20009G14KT 33/03 A2973 RMK A01 T03310028  RH  015%=      5-min Rain = 0
KPD2 272107Z 17008G13KT 33/03 A2972 RMK A01 T03310026  RH  015%=      5-min Rain = 0
KPD2 272108Z 19008G13KT 33/03 A2972 RMK A01 T03320032  RH  015%=      5-min Rain = 0
KPD2 272109Z 18009KT 33/03 A2972 RMK A01 T03320032  RH  015%=      5-min Rain = 0
KPD2 272110Z 21011G17KT 33/04 A2972 RMK A01 T03330037  RH  016%=      5-min Rain = 0
KPD2 272111Z 21008G16KT 33/03 A2972 RMK A01 T03340033  RH  015%=      5-min Rain = 0
KPD2 272112Z 22007G13KT 33/03 A2972 RMK A01 T03340028  RH  015%=      5-min Rain = 0
KPD2 272113Z 20011G16KT 33/03 A2972 RMK A01 T03340026  RH  014%=      5-min Rain = 0
KPD2 272114Z 19011G16KT 33/03 A2972 RMK A01 T03340029  RH  015%=      5-min Rain = 0
KPD2 272115Z 20007G16KT 33/02 A2972 RMK A01 T03330020  RH  014%=      5-min Rain = 0
KPD2 272116Z 18012G19KT 33/02 A2972 RMK A01 T03330024  RH  014%=      5-min Rain = 0
KPD2 272117Z 19008KT 33/02 A2972 RMK A01 T03320018  RH  014%=      5-min Rain = 0
KPD2 272118Z 21009G15KT 33/03 A2972 RMK A01 T03320028  RH  015%=      5-min Rain = 0
KPD2 272119Z 20005KT 33/03 A2972 RMK A01 T03330028  RH  015%=      5-min Rain = 0
KPD2 272120Z 22010G16KT 33/03 A2972 RMK A01 T03330032  RH  015%=      5-min Rain = 0
KPD2 272121Z 20013G20KT 33/03 A2973 RMK A01 T03340028  RH  015%=      5-min Rain = 0
KPD2 272122Z 19012G17KT 33/02 A2972 RMK A01 T03320023  RH  014%=      5-min Rain = 0
KPD2 272123Z 20013G21KT 33/03 A2973 RMK A01 T03310030  RH  015%=      5-min Rain = 0
KPD2 272124Z 20009G14KT 33/03 A2973 RMK A01 T03310027  RH  015%=      5-min Rain = 0
KPD2 272125Z 20011G23KT 33/03 A2972 RMK A01 T03310028  RH  015%=      5-min Rain = 0
KPD2 272126Z 18007G13KT 33/03 A2972 RMK A01 T03300031  RH  015%=      5-min Rain = 0
KPD2 272127Z 21006KT 33/03 A2972 RMK A01 T03300031  RH  015%=      5-min Rain = 0
KPD2 272128Z 21008KT 33/04 A2972 RMK A01 T03310040  RH  016%=      5-min Rain = 0
KPD2 272129Z 20009KT 33/04 A2972 RMK A01 T03310036  RH  016%=      5-min Rain = 0
KPD2 272130Z 25009G14KT 33/04 A2972 RMK A01 T03310038  RH  016%=      5-min Rain = 0
KPD2 272131Z 20007G12KT 33/04 A2972 RMK A01 T03320041  RH  016%=      5-min Rain = 0
KPD2 272132Z 21010KT 33/04 A2972 RMK A01 T03320039  RH  016%=      5-min Rain = 0
KPD2 272133Z 27008G14KT 33/03 A2972 RMK A01 T03310034  RH  015%=      5-min Rain = 0
KPD2 272134Z 28007KT 33/04 A2971 RMK A01 T03300041  RH  016%=      5-min Rain = 0
KPD2 272135Z 24006KT 33/05 A2972 RMK A01 T03310045  RH  017%=      5-min Rain = 0
KPD2 272136Z 20009KT 33/05 A2972 RMK A01 T03320045  RH  017%=      5-min Rain = 0
KPD2 272137Z 17011G19KT 33/04 A2972 RMK A01 T03330044  RH  016%=      5-min Rain = 0
KPD2 272138Z 15012G20KT 33/03 A2971 RMK A01 T03320033  RH  015%=      5-min Rain = 0
KPD2 272139Z 19013G22KT 33/04 A2972 RMK A01 T03300036  RH  016%=      5-min Rain = 0
KPD2 272140Z 22013G21KT 33/04 A2972 RMK A01 T03290037  RH  016%=      5-min Rain = 0
KPD2 272141Z 24007G12KT 33/04 A2972 RMK A01 T03290042  RH  017%=      5-min Rain = 0
KPD2 272142Z 21006G11KT 33/04 A2971 RMK A01 T03300038  RH  016%=      5-min Rain = 0
KPD2 272143Z 18007KT 33/04 A2971 RMK A01 T03300040  RH  016%=      5-min Rain = 0
KPD2 272144Z 19004G9KT 33/05 A2971 RMK A01 T03310046  RH  017%=      5-min Rain = 0
KPD2 272145Z 19007KT 33/04 A2971 RMK A01 T03310040  RH  016%=      5-min Rain = 0
KPD2 272146Z 24008G13KT 33/05 A2971 RMK A01 T03310047  RH  017%=      5-min Rain = 0
KPD2 272147Z 23011G17KT 33/04 A2971 RMK A01 T03310042  RH  016%=      5-min Rain = 0
KPD2 272148Z 19005G10KT 33/04 A2971 RMK A01 T03310041  RH  016%=      5-min Rain = 0
KPD2 272149Z 21006KT 33/04 A2971 RMK A01 T03300043  RH  016%=      5-min Rain = 0
KPD2 272150Z 22003KT 33/06 A2971 RMK A01 T03310056  RH  018%=      5-min Rain = 0
KPD2 272151Z 18008KT 33/05 A2971 RMK A01 T03340048  RH  017%=      5-min Rain = 0
KPD2 272152Z 21007G12KT 33/05 A2971 RMK A01 T03330045  RH  016%=      5-min Rain = 0
KPD2 272153Z 17005G12KT 33/05 A2971 RMK A01 T03320047  RH  017%=      5-min Rain = 0
KPD2 272154Z 16008G14KT 33/05 A2971 RMK A01 T03330054  RH  018%=      5-min Rain = 0
KPD2 272155Z 16008KT 33/05 A2971 RMK A01 T03330049  RH  017%=      5-min Rain = 0
KPD2 272156Z 16007KT 33/05 A2971 RMK A01 T03340049  RH  017%=      5-min Rain = 0
KPD2 272157Z 18006KT 33/05 A2971 RMK A01 T03340045  RH  016%=      5-min Rain = 0
KPD2 272158Z 21006G12KT 33/06 A297 RMK A01 T03330055  RH  018%=      5-min Rain = 0
KPD2 272159Z 19010KT 33/05 A2971 RMK A01 T03340047  RH  017%=      5-min Rain = 0
KPD2 272200Z 19009G14KT 33/05 A2971 RMK A01 T03330047  RH  017%=      5-min Rain = 0
KPD2 272201Z 18011KT 33/05 A297 RMK A01 T03320048  RH  017%=      5-min Rain = 0
KPD2 272202Z 16011G16KT 33/04 A297 RMK A01 T03310043  RH  016%=      5-min Rain = 0
KPD2 272203Z 20005G10KT 33/05 A297 RMK A01 T03300050  RH  017%=      5-min Rain = 0
KPD2 272204Z 21006G15KT 33/05 A297 RMK A01 T03310048  RH  017%=      5-min Rain = 0
KPD2 272205Z 18002KT 33/04 A297 RMK A01 T03310044  RH  017%=      5-min Rain = 0
KPD2 272206Z 18006KT 33/05 A297 RMK A01 T03310053  RH  018%=      5-min Rain = 0
KPD2 272207Z 19010G19KT 33/06 A297 RMK A01 T03320057  RH  018%=      5-min Rain = 0
KPD2 272208Z 19014G22KT 33/05 A297 RMK A01 T03330046  RH  017%=      5-min Rain = 0
KPD2 272209Z 17009G15KT 33/04 A2969 RMK A01 T03310044  RH  017%=      5-min Rain = 0
KPD2 272210Z 14007KT 33/05 A2969 RMK A01 T03300050  RH  017%=      5-min Rain = 0
KPD2 272211Z 17008G13KT 33/05 A2969 RMK A01 T03310054  RH  018%=      5-min Rain = 0
KPD2 272212Z 19007G12KT 33/05 A2969 RMK A01 T03330053  RH  017%=      5-min Rain = 0
KPD2 272213Z 17013G22KT 33/06 A2969 RMK A01 T03330059  RH  018%=      5-min Rain = 0
KPD2 272214Z 17017G22KT 33/05 A2969 RMK A01 T03340047  RH  017%=      5-min Rain = 0
KPD2 272215Z 18008KT 33/05 A2969 RMK A01 T03330049  RH  017%=      5-min Rain = 0
KPD2 272216Z 16010KT 33/05 A2969 RMK A01 T03330049  RH  017%=      5-min Rain = 0
KPD2 272217Z 15011KT 33/04 A2969 RMK A01 T03330042  RH  016%=      5-min Rain = 0
KPD2 272218Z 15009G15KT 33/05 A2969 RMK A01 T03320045  RH  016%=      5-min Rain = 0
KPD2 272219Z 16007KT 33/06 A2969 RMK A01 T03330055  RH  018%=      5-min Rain = 0
KPD2 272220Z 17010G16KT 33/05 A2969 RMK A01 T03340053  RH  017%=      5-min Rain = 0
KPD2 272221Z 15007G14KT 33/05 A2969 RMK A01 T03330050  RH  017%=      5-min Rain = 0
KPD2 272222Z 19004KT 33/05 A2969 RMK A01 T03330054  RH  017%=      5-min Rain = 0
KPD2 272223Z 15006KT 33/05 A2969 RMK A01 T03340054  RH  018%=      5-min Rain = 0
KPD2 272224Z 12009G14KT 34/06 A2968 RMK A01 T03350059  RH  018%=      5-min Rain = 0
KPD2 272225Z 21013G18KT 34/05 A2969 RMK A01 T03370045  RH  016%=      5-min Rain = 0
KPD2 272226Z 17007KT 34/04 A2968 RMK A01 T03360037  RH  015%=      5-min Rain = 0
KPD2 272227Z 21008KT 34/04 A2969 RMK A01 T03350042  RH  016%=      5-min Rain = 0
KPD2 272228Z 19008KT 34/05 A2968 RMK A01 T03350046  RH  016%=      5-min Rain = 0
KPD2 272229Z 15006KT 34/05 A2968 RMK A01 T03350050  RH  017%=      5-min Rain = 0
KPD2 272230Z 21006G12KT 34/04 A2968 RMK A01 T03370044  RH  016%=      5-min Rain = 0
KPD2 272231Z 17008KT 34/05 A2968 RMK A01 T03370050  RH  017%=      5-min Rain = 0
KPD2 272232Z 20013G18KT 34/04 A2968 RMK A01 T03380040  RH  016%=      5-min Rain = 0
KPD2 272233Z 25010KT 34/04 A2969 RMK A01 T03370038  RH  015%=      5-min Rain = 0
KPD2 272234Z 21012G17KT 34/03 A2969 RMK A01 T03360034  RH  015%=      5-min Rain = 0
KPD2 272235Z 20015G21KT 34/03 A2969 RMK A01 T03350027  RH  014%=      5-min Rain = 0
KPD2 272236Z 18014KT 33/02 A2969 RMK A01 T03340024  RH  014%=      5-min Rain = 0
KPD2 272237Z 17009G14KT 33/02 A2969 RMK A01 T03330023  RH  014%=      5-min Rain = 0
KPD2 272238Z 18012G20KT 33/03 A2969 RMK A01 T03320027  RH  015%=      5-min Rain = 0
KPD2 272239Z 16009G14KT 33/03 A2968 RMK A01 T03320028  RH  015%=      5-min Rain = 0
KPD2 272240Z 17009G15KT 33/03 A2968 RMK A01 T03330032  RH  015%=      5-min Rain = 0
KPD2 272241Z 16014G22KT 33/03 A2968 RMK A01 T03340028  RH  015%=      5-min Rain = 0
KPD2 272242Z 19007KT 33/03 A2968 RMK A01 T03340027  RH  014%=      5-min Rain = 0
KPD2 272243Z 16005G10KT 33/04 A2968 RMK A01 T03340035  RH  015%=      5-min Rain = 0
KPD2 272244Z 17007KT 34/05 A2968 RMK A01 T03350045  RH  016%=      5-min Rain = 0
KPD2 272245Z 17012G18KT 34/04 A2968 RMK A01 T03370042  RH  016%=      5-min Rain = 0
KPD2 272246Z 15014G22KT 34/04 A2968 RMK A01 T03370036  RH  015%=      5-min Rain = 0
KPD2 272247Z 18010KT 34/04 A2968 RMK A01 T03360036  RH  015%=      5-min Rain = 0
KPD2 272248Z 16013G19KT 34/04 A2968 RMK A01 T03350038  RH  016%=      5-min Rain = 0
KPD2 272249Z 15009G15KT 33/04 A2968 RMK A01 T03340039  RH  016%=      5-min Rain = 0
KPD2 272250Z 22011KT 33/04 A2968 RMK A01 T03340044  RH  016%=      5-min Rain = 0
KPD2 272251Z 22008G13KT 33/05 A2968 RMK A01 T03330051  RH  017%=      5-min Rain = 0
KPD2 272252Z 20008G13KT 33/05 A2968 RMK A01 T03330050  RH  017%=      5-min Rain = 0
KPD2 272253Z 21010G15KT 33/05 A2968 RMK A01 T03330048  RH  017%=      5-min Rain = 0
KPD2 272254Z 19009G16KT 33/05 A2967 RMK A01 T03330051  RH  017%=      5-min Rain = 0
KPD2 272255Z 15012KT 33/05 A2968 RMK A01 T03330054  RH  018%=      5-min Rain = 0
KPD2 272256Z 14004G10KT 33/06 A2967 RMK A01 T03340056  RH  018%=      5-min Rain = 0
KPD2 272257Z 17009G14KT 34/06 A2967 RMK A01 T03350055  RH  017%=      5-min Rain = 0
KPD2 272258Z 15006KT 34/06 A2967 RMK A01 T03350057  RH  018%=      5-min Rain = 0
KPD2 272259Z 18007G12KT 34/06 A2967 RMK A01 T03350055  RH  017%=      5-min Rain = 0
KPD2 272300Z 17006G11KT 34/05 A2967 RMK A01 T03350054  RH  017%=      5-min Rain = 0
KPD2 272301Z 17006KT 34/06 A2967 RMK A01 T03350058  RH  018%=      5-min Rain = 0
KPD2 272302Z 15004G9KT 34/05 A2967 RMK A01 T03350052  RH  017%=      5-min Rain = 0
KPD2 272303Z 14011KT 33/06 A2967 RMK A01 T03340064  RH  019%=      5-min Rain = 0
KPD2 272304Z 17009KT 34/06 A2967 RMK A01 T03350060  RH  018%=      5-min Rain = 0
KPD2 272305Z 16008KT 34/06 A2967 RMK A01 T03350059  RH  018%=      5-min Rain = 0
KPD2 272306Z 16008G15KT 34/06 A2967 RMK A01 T03350058  RH  018%=      5-min Rain = 0
KPD2 272307Z 13009G15KT 33/06 A2967 RMK A01 T03340057  RH  018%=      5-min Rain = 0
KPD2 272308Z 16010KT 33/06 A2967 RMK A01 T03330059  RH  018%=      5-min Rain = 0
KPD2 272309Z 18012KT 33/06 A2967 RMK A01 T03330058  RH  018%=      5-min Rain = 0
KPD2 272310Z 15009KT 33/06 A2967 RMK A01 T03330058  RH  018%=      5-min Rain = 0
KPD2 272311Z 15015G20KT 33/06 A2967 RMK A01 T03330062  RH  019%=      5-min Rain = 0
KPD2 272312Z 15008G13KT 33/06 A2967 RMK A01 T03330062  RH  019%=      5-min Rain = 0
KPD2 272313Z 20007KT 33/06 A2967 RMK A01 T03340063  RH  019%=      5-min Rain = 0
KPD2 272314Z 15006KT 33/06 A2967 RMK A01 T03340059  RH  018%=      5-min Rain = 0
KPD2 272315Z 16006KT 33/06 A2967 RMK A01 T03340063  RH  019%=      5-min Rain = 0
KPD2 272316Z 17006KT 33/07 A2967 RMK A01 T03340068  RH  019%=      5-min Rain = 0
KPD2 272317Z 21004KT 34/07 A2966 RMK A01 T03350070  RH  019%=      5-min Rain = 0
KPD2 272318Z 21005KT 34/06 A2966 RMK A01 T03350062  RH  018%=      5-min Rain = 0
KPD2 272319Z 21011G18KT 34/06 A2967 RMK A01 T03350062  RH  018%=      5-min Rain = 0
KPD2 272320Z 20014G21KT 34/06 A2967 RMK A01 T03350062  RH  018%=      5-min Rain = 0
KPD2 272321Z 20009G17KT 33/06 A2967 RMK A01 T03330056  RH  018%=      5-min Rain = 0
KPD2 272322Z 21011G19KT 33/06 A2967 RMK A01 T03330056  RH  018%=      5-min Rain = 0
KPD2 272323Z 20010G20KT 33/06 A2966 RMK A01 T03320059  RH  018%=      5-min Rain = 0
KPD2 272324Z 18011G16KT 33/06 A2967 RMK A01 T03320059  RH  018%=      5-min Rain = 0
KPD2 272325Z 19007G13KT 33/05 A2966 RMK A01 T03320054  RH  018%=      5-min Rain = 0
KPD2 272326Z 17006KT 33/06 A2966 RMK A01 T03320060  RH  018%=      5-min Rain = 0
KPD2 272327Z 22009KT 33/06 A2967 RMK A01 T03330060  RH  018%=      5-min Rain = 0
KPD2 272328Z 16005KT 33/06 A2966 RMK A01 T03320059  RH  018%=      5-min Rain = 0
KPD2 272329Z 17007KT 33/06 A2966 RMK A01 T03330060  RH  018%=      5-min Rain = 0
KPD2 272330Z 15005KT 33/06 A2966 RMK A01 T03330061  RH  018%=      5-min Rain = 0
KPD2 272331Z 15011KT 33/07 A2966 RMK A01 T03330065  RH  019%=      5-min Rain = 0
KPD2 272332Z 19006KT 33/06 A2966 RMK A01 T03340062  RH  018%=      5-min Rain = 0
KPD2 272333Z 17003KT 33/06 A2966 RMK A01 T03340061  RH  018%=      5-min Rain = 0
KPD2 272334Z 14006KT 33/07 A2966 RMK A01 T03340066  RH  019%=      5-min Rain = 0
KPD2 272335Z 16006KT 33/06 A2966 RMK A01 T03340055  RH  017%=      5-min Rain = 0
KPD2 272336Z 19009KT 33/06 A2966 RMK A01 T03340056  RH  018%=      5-min Rain = 0
KPD2 272337Z 19005KT 33/05 A2966 RMK A01 T03340054  RH  017%=      5-min Rain = 0
KPD2 272338Z 17006KT 33/06 A2966 RMK A01 T03330059  RH  018%=      5-min Rain = 0
KPD2 272339Z 19004KT 33/06 A2967 RMK A01 T03330062  RH  019%=      5-min Rain = 0
KPD2 272340Z 14010G15KT 33/06 A2966 RMK A01 T03330061  RH  018%=      5-min Rain = 0
KPD2 272341Z 15016G24KT 33/05 A2966 RMK A01 T03330052  RH  017%=      5-min Rain = 0
KPD2 272342Z 18012G17KT 33/05 A2966 RMK A01 T03340048  RH  017%=      5-min Rain = 0
KPD2 272343Z 15010KT 33/06 A2966 RMK A01 T03330057  RH  018%=      5-min Rain = 0
KPD2 272344Z 15008KT 33/08 A2966 RMK A01 T03330075  RH  020%=      5-min Rain = 0
KPD2 272345Z 16010KT 33/10 A2966 RMK A01 T03330096  RH  023%=      5-min Rain = 0
KPD2 272346Z 15014KT 33/10 A2966 RMK A01 T03300104  RH  025%=      5-min Rain = 0
KPD2 272347Z 15014KT 33/11 A2966 RMK A01 T03280106  RH  026%=      5-min Rain = 0
KPD2 272348Z 15011KT 33/11 A2966 RMK A01 T03270106  RH  026%=      5-min Rain = 0
KPD2 272349Z 17011KT 33/10 A2966 RMK A01 T03260103  RH  025%=      5-min Rain = 0
KPD2 272350Z 17008KT 33/10 A2966 RMK A01 T03260103  RH  025%=      5-min Rain = 0
KPD2 272351Z 15011KT 33/10 A2966 RMK A01 T03260098  RH  025%=      5-min Rain = 0
KPD2 272352Z 15007KT 33/09 A2966 RMK A01 T03260087  RH  023%=      5-min Rain = 0
KPD2 272353Z 16006KT 33/09 A2966 RMK A01 T03270091  RH  023%=      5-min Rain = 0
KPD2 272354Z 13010KT 33/11 A2966 RMK A01 T03270111  RH  027%=      5-min Rain = 0
KPD2 272355Z 13009KT 33/12 A2966 RMK A01 T03270122  RH  029%=      5-min Rain = 0
KPD2 272356Z 14008KT 33/12 A2966 RMK A01 T03280119  RH  028%=      5-min Rain = 0
KPD2 272357Z 15012G18KT 33/10 A2966 RMK A01 T03270103  RH  025%=      5-min Rain = 0
KPD2 272358Z 15008KT 33/07 A2966 RMK A01 T03270067  RH  020%=      5-min Rain = 0
KPD2 272359Z 15012KT 33/06 A2966 RMK A01 T03280063  RH  019%=      5-min Rain = 0
KPD2 280000Z 16010G15KT 33/07 A2966 RMK A01 T03290072  RH  020%=      5-min Rain = 0
KPD2 280001Z 15011KT 33/10 A2966 RMK A01 T03290097  RH  024%=      5-min Rain = 0
KPD2 280002Z 15010KT 33/12 A2966 RMK A01 T03270120  RH  028%=      5-min Rain = 0
KPD2 280003Z 16013KT 33/13 A2966 RMK A01 T03250134  RH  031%=      5-min Rain = 0
KPD2 280004Z 15011G17KT 32/14 A2966 RMK A01 T03220141  RH  033%=      5-min Rain = 0
KPD2 280005Z 15012G18KT 32/15 A2966 RMK A01 T03210145  RH  034%=      5-min Rain = 0
KPD2 280006Z 15013G19KT 32/15 A2966 RMK A01 T03200148  RH  035%=      5-min Rain = 0
KPD2 280007Z 15016G22KT 32/15 A2966 RMK A01 T03190152  RH  036%=      5-min Rain = 0
KPD2 280008Z 15017G25KT 32/16 A2966 RMK A01 T03170155  RH  038%=      5-min Rain = 0
KPD2 280009Z 15019KT 32/16 A2966 RMK A01 T03160159  RH  039%=      5-min Rain = 0
KPD2 280010Z 15015G20KT 32/16 A2966 RMK A01 T03150159  RH  039%=      5-min Rain = 0
KPD2 280011Z 15015G22KT 32/16 A2966 RMK A01 T03150160  RH  039%=      5-min Rain = 0
KPD2 280012Z 15017KT 31/16 A2966 RMK A01 T03140161  RH  040%=      5-min Rain = 0
KPD2 280013Z 16014G19KT 31/16 A2966 RMK A01 T03140161  RH  040%=      5-min Rain = 0
KPD2 280014Z 17012G17KT 31/16 A2965 RMK A01 T03130163  RH  041%=      5-min Rain = 0
KPD2 280015Z 17013KT 31/16 A2966 RMK A01 T03120163  RH  041%=      5-min Rain = 0
KPD2 280016Z 16010KT 31/17 A2966 RMK A01 T03120165  RH  041%=      5-min Rain = 0
KPD2 280017Z 16009G15KT 31/17 A2966 RMK A01 T03120166  RH  042%=      5-min Rain = 0
KPD2 280018Z 14012G20KT 31/17 A2965 RMK A01 T03120165  RH  041%=      5-min Rain = 0
KPD2 280019Z 14011KT 31/17 A2965 RMK A01 T03120166  RH  042%=      5-min Rain = 0
KPD2 280020Z 15011KT 31/17 A2965 RMK A01 T03120167  RH  042%=      5-min Rain = 0
KPD2 280021Z 16012G17KT 31/17 A2965 RMK A01 T03110167  RH  042%=      5-min Rain = 0
KPD2 280022Z 15010G15KT 31/17 A2965 RMK A01 T03110167  RH  042%=      5-min Rain = 0
KPD2 280023Z 15011KT 31/17 A2965 RMK A01 T03110168  RH  042%=      5-min Rain = 0
KPD2 280024Z 15010KT 31/17 A2965 RMK A01 T03100168  RH  042%=      5-min Rain = 0
KPD2 280025Z 15015G21KT 31/17 A2966 RMK A01 T03100168  RH  043%=      5-min Rain = 0
KPD2 280026Z 14011G18KT 31/17 A2965 RMK A01 T03090168  RH  043%=      5-min Rain = 0
KPD2 280027Z 15012G17KT 31/17 A2965 RMK A01 T03090168  RH  043%=      5-min Rain = 0
KPD2 280028Z 15014G20KT 31/17 A2965 RMK A01 T03090169  RH  043%=      5-min Rain = 0
KPD2 280029Z 15013G20KT 31/17 A2965 RMK A01 T03080169  RH  043%=      5-min Rain = 0
KPD2 280030Z 14011KT 31/17 A2965 RMK A01 T03070170  RH  044%=      5-min Rain = 0
KPD2 280031Z 15010KT 31/17 A2965 RMK A01 T03070170  RH  044%=      5-min Rain = 0
KPD2 280032Z 14011G16KT 31/17 A2965 RMK A01 T03070171  RH  044%=      5-min Rain = 0
KPD2 280033Z 14011KT 31/17 A2965 RMK A01 T03070170  RH  044%=      5-min Rain = 0
KPD2 280034Z 15011KT 31/17 A2965 RMK A01 T03060169  RH  044%=      5-min Rain = 0
KPD2 280035Z 14009KT 31/17 A2965 RMK A01 T03060171  RH  044%=      5-min Rain = 0
KPD2 280036Z 14014KT 31/17 A2965 RMK A01 T03050169  RH  044%=      5-min Rain = 0
KPD2 280037Z 14014KT 31/17 A2965 RMK A01 T03050167  RH  044%=      5-min Rain = 0
KPD2 280038Z 14014KT 31/17 A2965 RMK A01 T03050167  RH  044%=      5-min Rain = 0
KPD2 280039Z 14014KT 31/17 A2965 RMK A01 T03050166  RH  043%=      5-min Rain = 0
KPD2 280040Z 14013KT 31/17 A2965 RMK A01 T03050166  RH  043%=      5-min Rain = 0
KPD2 280041Z 15012G20KT 30/17 A2965 RMK A01 T03040166  RH  043%=      5-min Rain = 0
KPD2 280042Z 17016KT 30/17 A2965 RMK A01 T03040165  RH  043%=      5-min Rain = 0
KPD2 280043Z 17014G19KT 30/16 A2965 RMK A01 T03040164  RH  043%=      5-min Rain = 0
KPD2 280044Z 16009KT 30/17 A2965 RMK A01 T03030167  RH  044%=      5-min Rain = 0
KPD2 280045Z 17012KT 30/17 A2965 RMK A01 T03030167  RH  044%=      5-min Rain = 0
KPD2 280046Z 16010KT 30/17 A2965 RMK A01 T03030165  RH  044%=      5-min Rain = 0
KPD2 280047Z 17011G16KT 30/17 A2965 RMK A01 T03020166  RH  044%=      5-min Rain = 0
KPD2 280048Z 16012KT 30/17 A2965 RMK A01 T03020165  RH  044%=      5-min Rain = 0
KPD2 280049Z 15009KT 30/17 A2965 RMK A01 T03010166  RH  044%=      5-min Rain = 0
KPD2 280050Z 16011G16KT 30/17 A2965 RMK A01 T03010167  RH  044%=      5-min Rain = 0
KPD2 280051Z 15010KT 30/17 A2966 RMK A01 T03010166  RH  044%=      5-min Rain = 0
KPD2 280052Z 15013G18KT 30/17 A2966 RMK A01 T03010166  RH  044%=      5-min Rain = 0
KPD2 280053Z 15013KT 30/16 A2966 RMK A01 T03000164  RH  044%=      5-min Rain = 0
KPD2 280054Z 15015G24KT 30/16 A2966 RMK A01 T03000162  RH  043%=      5-min Rain = 0
KPD2 280055Z 16016KT 30/16 A2965 RMK A01 T03000161  RH  043%=      5-min Rain = 0
KPD2 280056Z 15012KT 30/16 A2965 RMK A01 T03000163  RH  044%=      5-min Rain = 0
KPD2 280057Z 15011G16KT 30/16 A2965 RMK A01 T03000164  RH  044%=      5-min Rain = 0
KPD2 280058Z 16011KT 30/16 A2965 RMK A01 T02990163  RH  044%=      5-min Rain = 0
KPD2 280059Z 17016G21KT 30/16 A2965 RMK A01 T02990162  RH  044%=      5-min Rain = 0
KPD2 280100Z 14013KT 30/16 A2965 RMK A01 T02990162  RH  044%=      5-min Rain = 0
KPD2 280101Z 14011G18KT 30/16 A2966 RMK A01 T02980162  RH  044%=      5-min Rain = 0
KPD2 280102Z 14014KT 30/16 A2965 RMK A01 T02980161  RH  044%=      5-min Rain = 0
KPD2 280103Z 13013G18KT 30/16 A2965 RMK A01 T02980161  RH  044%=      5-min Rain = 0
KPD2 280104Z 13013KT 30/16 A2965 RMK A01 T02970161  RH  044%=      5-min Rain = 0
KPD2 280105Z 15011KT 30/16 A2965 RMK A01 T02970160  RH  044%=      5-min Rain = 0
KPD2 280106Z 15010G15KT 30/16 A2965 RMK A01 T02970160  RH  044%=      5-min Rain = 0
KPD2 280107Z 14010G15KT 30/16 A2965 RMK A01 T02960161  RH  044%=      5-min Rain = 0
KPD2 280108Z 15011KT 30/16 A2966 RMK A01 T02960160  RH  044%=      5-min Rain = 0
KPD2 280109Z 14013KT 30/16 A2966 RMK A01 T02960160  RH  044%=      5-min Rain = 0
KPD2 280110Z 14010KT 30/16 A2966 RMK A01 T02950159  RH  044%=      5-min Rain = 0
KPD2 280111Z 14012G17KT 30/16 A2966 RMK A01 T02950160  RH  044%=      5-min Rain = 0
KPD2 280112Z 14014KT 30/16 A2966 RMK A01 T02950159  RH  044%=      5-min Rain = 0
KPD2 280113Z 14013G20KT 30/16 A2965 RMK A01 T02950159  RH  044%=      5-min Rain = 0
KPD2 280114Z 15011KT 30/16 A2966 RMK A01 T02950158  RH  044%=      5-min Rain = 0
KPD2 280115Z 15012KT 30/16 A2966 RMK A01 T02950159  RH  044%=      5-min Rain = 0
KPD2 280116Z 13011G18KT 29/16 A2966 RMK A01 T02940159  RH  044%=      5-min Rain = 0
KPD2 280117Z 14010KT 29/16 A2966 RMK A01 T02940159  RH  044%=      5-min Rain = 0
KPD2 280118Z 14013G18KT 29/16 A2966 RMK A01 T02930159  RH  044%=      5-min Rain = 0
KPD2 280119Z 14011G16KT 29/16 A2966 RMK A01 T02930159  RH  044%=      5-min Rain = 0
KPD2 280120Z 15011KT 29/16 A2966 RMK A01 T02930159  RH  044%=      5-min Rain = 0
KPD2 280121Z 14009KT 29/16 A2966 RMK A01 T02920159  RH  045%=      5-min Rain = 0
KPD2 280122Z 14012G17KT 29/16 A2966 RMK A01 T02920159  RH  045%=      5-min Rain = 0
KPD2 280123Z 15011G17KT 29/16 A2966 RMK A01 T02920159  RH  045%=      5-min Rain = 0
KPD2 280124Z 16011KT 29/16 A2966 RMK A01 T02910158  RH  044%=      5-min Rain = 0
KPD2 280125Z 14010KT 29/16 A2966 RMK A01 T02910157  RH  044%=      5-min Rain = 0
KPD2 280126Z 14011G16KT 29/16 A2966 RMK A01 T02910158  RH  045%=      5-min Rain = 0
KPD2 280127Z 13012G18KT 29/16 A2966 RMK A01 T02910158  RH  045%=      5-min Rain = 0
KPD2 280128Z 14010G17KT 29/16 A2966 RMK A01 T02910159  RH  045%=      5-min Rain = 0
KPD2 280129Z 14013G18KT 29/16 A2966 RMK A01 T02900159  RH  045%=      5-min Rain = 0
KPD2 280130Z 14012G20KT 29/16 A2966 RMK A01 T02900158  RH  045%=      5-min Rain = 0
KPD2 280131Z 14012G17KT 29/16 A2966 RMK A01 T02900158  RH  045%=      5-min Rain = 0
KPD2 280132Z 15013G18KT 29/16 A2966 RMK A01 T02900158  RH  045%=      5-min Rain = 0
KPD2 280133Z 13011KT 29/16 A2966 RMK A01 T02890159  RH  045%=      5-min Rain = 0
KPD2 280134Z 15010KT 29/16 A2966 RMK A01 T02890159  RH  045%=      5-min Rain = 0
KPD2 280135Z 13011KT 29/16 A2966 RMK A01 T02880159  RH  046%=      5-min Rain = 0
KPD2 280136Z 14011KT 29/16 A2966 RMK A01 T02880159  RH  046%=      5-min Rain = 0
KPD2 280137Z 14011KT 29/16 A2966 RMK A01 T02880159  RH  046%=      5-min Rain = 0
KPD2 280138Z 14011KT 29/16 A2966 RMK A01 T02870161  RH  046%=      5-min Rain = 0
KPD2 280139Z 14011KT 29/16 A2966 RMK A01 T02860160  RH  046%=      5-min Rain = 0
KPD2 280140Z 15010KT 29/16 A2966 RMK A01 T02860160  RH  047%=      5-min Rain = 0
KPD2 280141Z 14009KT 29/16 A2966 RMK A01 T02860161  RH  047%=      5-min Rain = 0
KPD2 280142Z 14010G15KT 29/16 A2966 RMK A01 T02850161  RH  047%=      5-min Rain = 0
KPD2 280143Z 13011KT 29/16 A2966 RMK A01 T02850161  RH  047%=      5-min Rain = 0
KPD2 280144Z 14010KT 28/16 A2966 RMK A01 T02840161  RH  047%=      5-min Rain = 0
KPD2 280145Z 14009KT 28/16 A2966 RMK A01 T02830161  RH  048%=      5-min Rain = 0
KPD2 280146Z 14009KT 28/16 A2966 RMK A01 T02830162  RH  048%=      5-min Rain = 0
KPD2 280147Z 14011KT 28/16 A2966 RMK A01 T02820162  RH  048%=      5-min Rain = 0
KPD2 280148Z 15010KT 28/16 A2966 RMK A01 T02820162  RH  048%=      5-min Rain = 0
KPD2 280149Z 13009KT 28/16 A2966 RMK A01 T02810163  RH  049%=      5-min Rain = 0
KPD2 280150Z 15010KT 28/16 A2966 RMK A01 T02810163  RH  049%=      5-min Rain = 0
KPD2 280151Z 14009KT 28/16 A2966 RMK A01 T02800163  RH  049%=      5-min Rain = 0
KPD2 280152Z 14010KT 28/16 A2966 RMK A01 T02800164  RH  049%=      5-min Rain = 0
KPD2 280153Z 14009KT 28/17 A2966 RMK A01 T02800165  RH  050%=      5-min Rain = 0
KPD2 280154Z 13008KT 28/17 A2966 RMK A01 T02790165  RH  050%=      5-min Rain = 0
KPD2 280155Z 13013KT 28/17 A2966 RMK A01 T02780166  RH  050%=      5-min Rain = 0
KPD2 280156Z 14010KT 28/17 A2966 RMK A01 T02780166  RH  051%=      5-min Rain = 0
KPD2 280157Z 14011G17KT 28/17 A2966 RMK A01 T02780167  RH  051%=      5-min Rain = 0
KPD2 280158Z 13009KT 28/17 A2966 RMK A01 T02780167  RH  051%=      5-min Rain = 0
KPD2 280159Z 13010KT 28/17 A2966 RMK A01 T02770168  RH  051%=      5-min Rain = 0
KPD2 280200Z 14010KT 28/17 A2966 RMK A01 T02770168  RH  052%=      5-min Rain = 0
KPD2 280201Z 14011KT 28/17 A2966 RMK A01 T02770169  RH  052%=      5-min Rain = 0
KPD2 280202Z 14008KT 28/17 A2966 RMK A01 T02760169  RH  052%=      5-min Rain = 0
KPD2 280203Z 13008KT 28/17 A2966 RMK A01 T02760170  RH  052%=      5-min Rain = 0
KPD2 280204Z 14010KT 28/17 A2966 RMK A01 T02750170  RH  053%=      5-min Rain = 0
KPD2 280205Z 12009KT 27/17 A2966 RMK A01 T02740170  RH  053%=      5-min Rain = 0
KPD2 280206Z 13007G13KT 27/17 A2966 RMK A01 T02740171  RH  053%=      5-min Rain = 0
KPD2 280207Z 14012G17KT 27/17 A2966 RMK A01 T02730171  RH  053%=      5-min Rain = 0
KPD2 280208Z 13009KT 27/17 A2966 RMK A01 T02730171  RH  053%=      5-min Rain = 0
KPD2 280209Z 14010G15KT 27/17 A2966 RMK A01 T02730171  RH  053%=      5-min Rain = 0
KPD2 280210Z 14010KT 27/17 A2966 RMK A01 T02730171  RH  053%=      5-min Rain = 0
KPD2 280211Z 14010KT 27/17 A2966 RMK A01 T02740171  RH  053%=      5-min Rain = 0
KPD2 280212Z 14008KT 27/17 A2966 RMK A01 T02730171  RH  054%=      5-min Rain = 0
KPD2 280213Z 14011KT 27/17 A2966 RMK A01 T02730172  RH  054%=      5-min Rain = 0
KPD2 280214Z 14009KT 27/17 A2966 RMK A01 T02730172  RH  054%=      5-min Rain = 0
KPD2 280215Z 13008KT 27/17 A2966 RMK A01 T02730172  RH  054%=      5-min Rain = 0
KPD2 280216Z 14010KT 27/17 A2966 RMK A01 T02720173  RH  055%=      5-min Rain = 0
KPD2 280217Z 13010KT 27/17 A2966 RMK A01 T02710173  RH  055%=      5-min Rain = 0
KPD2 280218Z 14011G16KT 27/17 A2966 RMK A01 T02710173  RH  055%=      5-min Rain = 0
KPD2 280219Z 14010KT 27/17 A2966 RMK A01 T02710173  RH  055%=      5-min Rain = 0
KPD2 280220Z 13011KT 27/17 A2966 RMK A01 T02710173  RH  055%=      5-min Rain = 0
KPD2 280221Z 14009KT 27/17 A2966 RMK A01 T02710174  RH  055%=      5-min Rain = 0
KPD2 280222Z 14009G14KT 27/17 A2966 RMK A01 T02710174  RH  056%=      5-min Rain = 0
KPD2 280223Z 14011G16KT 27/18 A2966 RMK A01 T02710175  RH  056%=      5-min Rain = 0
KPD2 280224Z 15013G18KT 27/18 A2966 RMK A01 T02700175  RH  056%=      5-min Rain = 0
KPD2 280225Z 14010KT 27/18 A2966 RMK A01 T02700175  RH  056%=      5-min Rain = 0
KPD2 280226Z 14009KT 27/18 A2966 RMK A01 T02700176  RH  056%=      5-min Rain = 0
KPD2 280227Z 13009G14KT 27/18 A2966 RMK A01 T02700176  RH  056%=      5-min Rain = 0
KPD2 280228Z 13013KT 27/18 A2966 RMK A01 T02690176  RH  057%=      5-min Rain = 0
KPD2 280229Z 14011KT 27/18 A2966 RMK A01 T02690176  RH  057%=      5-min Rain = 0
KPD2 280230Z 13014G20KT 27/18 A2966 RMK A01 T02690176  RH  057%=      5-min Rain = 0
KPD2 280231Z 13012KT 27/18 A2966 RMK A01 T02690176  RH  057%=      5-min Rain = 0
KPD2 280232Z 14015KT 27/18 A2966 RMK A01 T02690177  RH  057%=      5-min Rain = 0
KPD2 280233Z 15010KT 27/18 A2966 RMK A01 T02690177  RH  057%=      5-min Rain = 0
KPD2 280234Z 14012G18KT 27/18 A2966 RMK A01 T02700177  RH  057%=      5-min Rain = 0
KPD2 280235Z 14011KT 27/18 A2966 RMK A01 T02690177  RH  057%=      5-min Rain = 0
KPD2 280236Z 14011KT 27/18 A2966 RMK A01 T02690177  RH  057%=      5-min Rain = 0
KPD2 280237Z 14008KT 27/18 A2966 RMK A01 T02690177  RH  057%=      5-min Rain = 0
KPD2 280238Z 15011KT 27/18 A2966 RMK A01 T02680177  RH  057%=      5-min Rain = 0
KPD2 280239Z 13009KT 27/18 A2966 RMK A01 T02680177  RH  057%=      5-min Rain = 0
KPD2 280240Z 14009KT 27/18 A2966 RMK A01 T02680178  RH  058%=      5-min Rain = 0
KPD2 280241Z 13011KT 27/18 A2966 RMK A01 T02670177  RH  058%=      5-min Rain = 0
KPD2 280242Z 13011KT 27/18 A2966 RMK A01 T02670177  RH  058%=      5-min Rain = 0
KPD2 280243Z 13011G17KT 27/18 A2966 RMK A01 T02670177  RH  058%=      5-min Rain = 0
KPD2 280244Z 13010KT 27/18 A2966 RMK A01 T02670177  RH  058%=      5-min Rain = 0
KPD2 280245Z 13010G15KT 27/18 A2966 RMK A01 T02670177  RH  058%=      5-min Rain = 0
KPD2 280246Z 13011G16KT 27/18 A2966 RMK A01 T02670178  RH  058%=      5-min Rain = 0
KPD2 280247Z 12011G18KT 27/18 A2966 RMK A01 T02670178  RH  058%=      5-min Rain = 0
KPD2 280248Z 13010KT 27/18 A2966 RMK A01 T02660179  RH  059%=      5-min Rain = 0
KPD2 280249Z 14009KT 27/18 A2966 RMK A01 T02660179  RH  059%=      5-min Rain = 0
KPD2 280250Z 13009KT 27/18 A2966 RMK A01 T02660179  RH  059%=      5-min Rain = 0
KPD2 280251Z 13014G19KT 27/18 A2966 RMK A01 T02650179  RH  059%=      5-min Rain = 0
KPD2 280252Z 14014G20KT 27/18 A2966 RMK A01 T02650179  RH  059%=      5-min Rain = 0
KPD2 280253Z 13012KT 27/18 A2966 RMK A01 T02650179  RH  059%=      5-min Rain = 0
KPD2 280254Z 14011KT 27/18 A2966 RMK A01 T02650179  RH  059%=      5-min Rain = 0
KPD2 280255Z 13010KT 27/18 A2966 RMK A01 T02650180  RH  059%=      5-min Rain = 0
KPD2 280256Z 13013G18KT 27/18 A2966 RMK A01 T02650180  RH  060%=      5-min Rain = 0
KPD2 280257Z 13014G19KT 27/18 A2966 RMK A01 T02650180  RH  060%=      5-min Rain = 0
KPD2 280258Z 14012KT 27/18 A2966 RMK A01 T02650180  RH  060%=      5-min Rain = 0
KPD2 280259Z 14011KT 27/18 A2966 RMK A01 T02650181  RH  060%=      5-min Rain = 0
KPD2 280300Z 13012KT 26/18 A2966 RMK A01 T02640181  RH  060%=      5-min Rain = 0
KPD2 280301Z 14010KT 26/18 A2966 RMK A01 T02640181  RH  060%=      5-min Rain = 0
KPD2 280302Z 14012KT 26/18 A2966 RMK A01 T02640181  RH  060%=      5-min Rain = 0
KPD2 280303Z 13010KT 26/18 A2966 RMK A01 T02630182  RH  061%=      5-min Rain = 0
KPD2 280304Z 14009KT 26/18 A2966 RMK A01 T02630182  RH  061%=      5-min Rain = 0
KPD2 280305Z 14010KT 26/18 A2966 RMK A01 T02630182  RH  061%=      5-min Rain = 0
KPD2 280306Z 13012KT 26/18 A2966 RMK A01 T02620182  RH  061%=      5-min Rain = 0
KPD2 280307Z 13009KT 26/18 A2966 RMK A01 T02620182  RH  061%=      5-min Rain = 0
KPD2 280308Z 13011G17KT 26/18 A2966 RMK A01 T02620183  RH  062%=      5-min Rain = 0
KPD2 280309Z 13010G16KT 26/18 A2966 RMK A01 T02620183  RH  062%=      5-min Rain = 0
KPD2 280310Z 13011G19KT 26/18 A2966 RMK A01 T02620183  RH  062%=      5-min Rain = 0
KPD2 280311Z 14011KT 26/18 A2966 RMK A01 T02620184  RH  062%=      5-min Rain = 0
KPD2 280312Z 14012KT 26/18 A2967 RMK A01 T02610184  RH  062%=      5-min Rain = 0
KPD2 280313Z 13013G19KT 26/18 A2967 RMK A01 T02610184  RH  062%=      5-min Rain = 0
KPD2 280314Z 14012KT 26/19 A2967 RMK A01 T02610185  RH  063%=      5-min Rain = 0
KPD2 280315Z 13009KT 26/19 A2967 RMK A01 T02610185  RH  063%=      5-min Rain = 0
KPD2 280316Z 14011KT 26/19 A2967 RMK A01 T02610185  RH  063%=      5-min Rain = 0
KPD2 280317Z 13010G15KT 26/19 A2967 RMK A01 T02600185  RH  063%=      5-min Rain = 0
KPD2 280318Z 13013G18KT 26/19 A2967 RMK A01 T02600186  RH  064%=      5-min Rain = 0
KPD2 280319Z 14008KT 26/19 A2967 RMK A01 T02600186  RH  064%=      5-min Rain = 0
KPD2 280320Z 13011KT 26/19 A2967 RMK A01 T02600186  RH  064%=      5-min Rain = 0
KPD2 280321Z 14008G13KT 26/19 A2967 RMK A01 T02590186  RH  064%=      5-min Rain = 0
KPD2 280322Z 13011G16KT 26/19 A2967 RMK A01 T02590187  RH  064%=      5-min Rain = 0
KPD2 280323Z 14012KT 26/19 A2967 RMK A01 T02580187  RH  065%=      5-min Rain = 0
KPD2 280324Z 14009KT 26/19 A2967 RMK A01 T02580187  RH  065%=      5-min Rain = 0
KPD2 280325Z 15008G16KT 26/19 A2967 RMK A01 T02580187  RH  065%=      5-min Rain = 0
KPD2 280326Z 15011KT 26/19 A2967 RMK A01 T02580188  RH  065%=      5-min Rain = 0
KPD2 280327Z 13009KT 26/19 A2967 RMK A01 T02580188  RH  065%=      5-min Rain = 0
KPD2 280328Z 13007KT 26/19 A2967 RMK A01 T02570188  RH  066%=      5-min Rain = 0
KPD2 280329Z 13009G14KT 26/19 A2967 RMK A01 T02570189  RH  066%=      5-min Rain = 0
KPD2 280330Z 13008KT 26/19 A2967 RMK A01 T02570189  RH  066%=      5-min Rain = 0
KPD2 280331Z 14009KT 26/19 A2967 RMK A01 T02570189  RH  066%=      5-min Rain = 0
KPD2 280332Z 13009KT 26/19 A2967 RMK A01 T02560189  RH  066%=      5-min Rain = 0
KPD2 280333Z 13011KT 26/19 A2967 RMK A01 T02560189  RH  067%=      5-min Rain = 0
KPD2 280334Z 13009KT 26/19 A2967 RMK A01 T02560190  RH  067%=      5-min Rain = 0
KPD2 280335Z 14009KT 26/19 A2967 RMK A01 T02560190  RH  067%=      5-min Rain = 0
KPD2 280336Z 13009KT 26/19 A2967 RMK A01 T02560190  RH  067%=      5-min Rain = 0
KPD2 280337Z 13009KT 26/19 A2967 RMK A01 T02560191  RH  067%=      5-min Rain = 0
KPD2 280338Z 13007G12KT 26/19 A2967 RMK A01 T02550190  RH  067%=      5-min Rain = 0
KPD2 280339Z 12009G16KT 26/19 A2967 RMK A01 T02560191  RH  067%=      5-min Rain = 0
KPD2 280340Z 15009KT 26/19 A2967 RMK A01 T02550191  RH  068%=      5-min Rain = 0
KPD2 280341Z 15006KT 26/19 A2967 RMK A01 T02560191  RH  068%=      5-min Rain = 0
KPD2 280342Z 13007KT 26/19 A2967 RMK A01 T02550191  RH  068%=      5-min Rain = 0
KPD2 280343Z 12009KT 26/19 A2968 RMK A01 T02550191  RH  068%=      5-min Rain = 0
KPD2 280344Z 13011G19KT 26/19 A2968 RMK A01 T02560192  RH  068%=      5-min Rain = 0
KPD2 280345Z 15009KT 26/19 A2968 RMK A01 T02550192  RH  068%=      5-min Rain = 0
KPD2 280346Z 13008KT 26/19 A2967 RMK A01 T02560192  RH  067%=      5-min Rain = 0
KPD2 280347Z 14008G13KT 26/19 A2968 RMK A01 T02570192  RH  067%=      5-min Rain = 0
KPD2 280348Z 12007KT 26/19 A2968 RMK A01 T02560192  RH  068%=      5-min Rain = 0
KPD2 280349Z 13011KT 26/19 A2968 RMK A01 T02560193  RH  068%=      5-min Rain = 0
KPD2 280350Z 13008KT 26/19 A2968 RMK A01 T02560193  RH  068%=      5-min Rain = 0
KPD2 280351Z 10009G14KT 26/19 A2968 RMK A01 T02560193  RH  068%=      5-min Rain = 0
KPD2 280352Z 13011KT 26/19 A2968 RMK A01 T02560193  RH  068%=      5-min Rain = 0
KPD2 280353Z 13012KT 26/19 A2968 RMK A01 T02560193  RH  068%=      5-min Rain = 0
KPD2 280354Z 13007KT 26/19 A2968 RMK A01 T02550193  RH  068%=      5-min Rain = 0
KPD2 280355Z 14010G15KT 26/19 A2968 RMK A01 T02560193  RH  068%=      5-min Rain = 0
KPD2 280356Z 13010KT 26/19 A2968 RMK A01 T02560193  RH  068%=      5-min Rain = 0
KPD2 280357Z 13013G20KT 26/19 A2968 RMK A01 T02570193  RH  068%=      5-min Rain = 0
KPD2 280358Z 14008KT 26/19 A2968 RMK A01 T02570193  RH  068%=      5-min Rain = 0
KPD2 280359Z 12012KT 26/19 A2968 RMK A01 T02570193  RH  068%=      5-min Rain = 0
KPD2 280400Z 15013G18KT 26/19 A2968 RMK A01 T02570193  RH  068%=      5-min Rain = 0
KPD2 280401Z 12010KT 26/19 A2968 RMK A01 T02570193  RH  067%=      5-min Rain = 0
KPD2 280402Z 13010G17KT 26/19 A2967 RMK A01 T02570193  RH  068%=      5-min Rain = 0
KPD2 280403Z 13009KT 26/19 A2968 RMK A01 T02570193  RH  068%=      5-min Rain = 0
KPD2 280404Z 13009KT 26/19 A2968 RMK A01 T02570194  RH  068%=      5-min Rain = 0
KPD2 280405Z 11008KT 26/19 A2968 RMK A01 T02570193  RH  068%=      5-min Rain = 0
KPD2 280406Z 12010G20KT 26/19 A2968 RMK A01 T02560193  RH  068%=      5-min Rain = 0
KPD2 280407Z 13016G21KT 26/19 A2968 RMK A01 T02560193  RH  068%=      5-min Rain = 0
KPD2 280408Z 15014G20KT 26/19 A2968 RMK A01 T02560193  RH  068%=      5-min Rain = 0
KPD2 280409Z 15012KT 26/19 A2968 RMK A01 T02570193  RH  068%=      5-min Rain = 0
KPD2 280410Z 16011KT 26/19 A2968 RMK A01 T02580193  RH  067%=      5-min Rain = 0
KPD2 280411Z 14010G17KT 26/19 A2968 RMK A01 T02580193  RH  067%=      5-min Rain = 0
KPD2 280412Z 13012G17KT 26/19 A2968 RMK A01 T02580193  RH  068%=      5-min Rain = 0
KPD2 280413Z 14012KT 26/19 A2968 RMK A01 T02580193  RH  068%=      5-min Rain = 0
KPD2 280414Z 15009KT 26/19 A2968 RMK A01 T02570193  RH  068%=      5-min Rain = 0
KPD2 280415Z 14009G15KT 26/19 A2968 RMK A01 T02570193  RH  068%=      5-min Rain = 0
KPD2 280416Z 12007G13KT 26/19 A2968 RMK A01 T02570193  RH  068%=      5-min Rain = 0
KPD2 280417Z 14012G20KT 26/19 A2968 RMK A01 T02560193  RH  068%=      5-min Rain = 0
KPD2 280418Z 15010KT 26/19 A2968 RMK A01 T02560193  RH  068%=      5-min Rain = 0
KPD2 280419Z 13009KT 26/19 A2968 RMK A01 T02570193  RH  068%=      5-min Rain = 0
KPD2 280420Z 12010KT 26/19 A2968 RMK A01 T02560193  RH  068%=      5-min Rain = 0
KPD2 280421Z 13009KT 26/19 A2968 RMK A01 T02560193  RH  068%=      5-min Rain = 0
KPD2 280422Z 15010KT 26/19 A2968 RMK A01 T02560193  RH  068%=      5-min Rain = 0
KPD2 280423Z 12011G20KT 26/19 A2968 RMK A01 T02550193  RH  068%=      5-min Rain = 0
KPD2 280424Z 16009G16KT 26/19 A2968 RMK A01 T02550193  RH  068%=      5-min Rain = 0
KPD2 280425Z 12008KT 26/19 A2968 RMK A01 T02560192  RH  068%=      5-min Rain = 0
KPD2 280426Z 13008G13KT 26/19 A2968 RMK A01 T02560193  RH  068%=      5-min Rain = 0
KPD2 280427Z 12013G18KT 26/19 A2968 RMK A01 T02560193  RH  068%=      5-min Rain = 0
KPD2 280428Z 13013KT 26/19 A2968 RMK A01 T02550193  RH  068%=      5-min Rain = 0
KPD2 280429Z 13011G16KT 26/19 A2968 RMK A01 T02550192  RH  068%=      5-min Rain = 0
KPD2 280430Z 12013G20KT 26/19 A2968 RMK A01 T02560193  RH  068%=      5-min Rain = 0
KPD2 280431Z 13011KT 26/19 A2968 RMK A01 T02550193  RH  068%=      5-min Rain = 0
KPD2 280432Z 16010G15KT 25/19 A2968 RMK A01 T02540192  RH  068%=      5-min Rain = 0
KPD2 280433Z 13008G15KT 26/19 A2968 RMK A01 T02550192  RH  068%=      5-min Rain = 0
KPD2 280434Z 12009G14KT 26/19 A2968 RMK A01 T02550192  RH  068%=      5-min Rain = 0
KPD2 280435Z 15010G15KT 26/19 A2968 RMK A01 T02550192  RH  068%=      5-min Rain = 0
KPD2 280436Z 15011KT 26/19 A2969 RMK A01 T02550192  RH  068%=      5-min Rain = 0
KPD2 280437Z 13011G16KT 26/19 A2969 RMK A01 T02550191  RH  068%=      5-min Rain = 0
KPD2 280438Z 15009KT 26/19 A2969 RMK A01 T02560192  RH  068%=      5-min Rain = 0
KPD2 280439Z 13004KT 26/19 A2968 RMK A01 T02550191  RH  068%=      5-min Rain = 0
KPD2 280440Z 12010G16KT 26/19 A2968 RMK A01 T02550191  RH  068%=      5-min Rain = 0
KPD2 280441Z 13010G15KT 26/19 A2968 RMK A01 T02550192  RH  068%=      5-min Rain = 0
KPD2 280442Z 14004KT 26/19 A2968 RMK A01 T02560192  RH  068%=      5-min Rain = 0
KPD2 280443Z 13012KT 26/19 A2968 RMK A01 T02560191  RH  068%=      5-min Rain = 0
KPD2 280444Z 13010G16KT 26/19 A2968 RMK A01 T02560191  RH  068%=      5-min Rain = 0
KPD2 280445Z 11009KT 26/19 A2968 RMK A01 T02550191  RH  067%=      5-min Rain = 0
KPD2 280446Z 14006KT 26/19 A2968 RMK A01 T02560191  RH  068%=      5-min Rain = 0
KPD2 280447Z 14009KT 26/19 A2969 RMK A01 T02550192  RH  068%=      5-min Rain = 0
KPD2 280448Z 15009KT 26/19 A2969 RMK A01 T02550191  RH  068%=      5-min Rain = 0
KPD2 280449Z 16008KT 26/19 A2969 RMK A01 T02550191  RH  068%=      5-min Rain = 0
KPD2 280450Z 11009KT 26/19 A2968 RMK A01 T02550191  RH  068%=      5-min Rain = 0
KPD2 280451Z 14007KT 26/19 A2968 RMK A01 T02550191  RH  068%=      5-min Rain = 0
KPD2 280452Z 13005G10KT 26/19 A2969 RMK A01 T02550191  RH  068%=      5-min Rain = 0
KPD2 280453Z 11007KT 26/19 A2969 RMK A01 T02550192  RH  068%=      5-min Rain = 0
KPD2 280454Z 12007G12KT 25/19 A2969 RMK A01 T02540191  RH  068%=      5-min Rain = 0
KPD2 280455Z 12009KT 25/19 A2969 RMK A01 T02530191  RH  069%=      5-min Rain = 0
KPD2 280456Z 13007G13KT 25/19 A2969 RMK A01 T02530191  RH  069%=      5-min Rain = 0
KPD2 280457Z 11006KT 25/19 A2969 RMK A01 T02530191  RH  069%=      5-min Rain = 0
KPD2 280458Z 12007KT 25/19 A2969 RMK A01 T02520191  RH  069%=      5-min Rain = 0
KPD2 280459Z 16008G13KT 25/19 A2969 RMK A01 T02520191  RH  069%=      5-min Rain = 0

Page generated in 0.1211 seconds.